Flight Track Log - Related Links

Times and Time Zones

All times are in EDT time to prevent confusion due to time zone crossing. See the AFR6725 flight status page for this flight to view local times or setup timezone preferences in your user account.

Time Position Orientation Groundspeed Altitude Reporting Facility
EDT Latitude Longitude Course Direction KTS MPH feet Rate Location/Type
Sat 09:22:52 AM 29.9450 -95.3346 163° South 178 205 900  Level FlightAware ADS-B
Sat 09:22:58 AM 29.9401 -95.3352 186° South 180 207 1,000 1,200 Climbing FlightAware ADS-B
Sat 09:23:02 AM 29.9369 -95.3365 199° South 183 211 1,100 2,250 Climbing FlightAware ADS-B
Sat 09:23:06 AM 29.9339 -95.3385 210° Southwest 184 212 1,300 1,800 Climbing FlightAware ADS-B
Sat 09:23:12 AM 29.9304 -95.3424 224° Southwest 186 214 1,400 1,333 Climbing FlightAware ADS-B
Sat 09:23:15 AM 29.9289 -95.3448 234° Southwest 188 216 1,500 2,000 Climbing FlightAware ADS-B
Sat 09:23:18 AM 29.9276 -95.3478 243° Southwest 190 219 1,600 1,714 Climbing FlightAware ADS-B
Sat 09:23:22 AM 29.9266 -95.3514 252° West 192 221 1,700 1,500 Climbing FlightAware ADS-B
Sat 09:23:26 AM 29.9261 -95.3556 262° West 196 226 1,800 1,714 Climbing FlightAware ADS-B
Sat 09:23:29 AM 29.9262 -95.3596 272° West 204 235 1,900 1,714 Climbing FlightAware ADS-B
Sat 09:23:33 AM 29.9268 -95.3637 280° West 212 244 2,000 857 Climbing FlightAware ADS-B
Sat 09:23:36 AM 29.9277 -95.3671 287° West 219 252 2,000 750 Level FlightAware ADS-B
Sat 09:23:41 AM 29.9297 -95.3724 294° West 229 264 2,100 1,200 Climbing FlightAware ADS-B
Sat 09:23:51 AM 29.9365 -95.3821 309° West 241 277 2,300 1,286 Climbing FlightAware ADS-B
Sat 09:23:55 AM 29.9400 -95.3853 322° Northwest 252 290 2,400 2,000 Climbing FlightAware ADS-B
Sat 09:24:00 AM 29.9458 -95.3890 331° Northwest 255 293 2,600 2,000 Climbing FlightAware ADS-B
Sat 09:24:04 AM 29.9495 -95.3907 338° Northwest 261 300 2,700 1,714 Climbing FlightAware ADS-B
Sat 09:24:07 AM 29.9530 -95.3919 343° North 265 305 2,800 1,000 Climbing FlightAware ADS-B
Sat 09:24:10 AM 29.9575 -95.3929 349° North 269 310 2,800 750 Level FlightAware ADS-B
Sat 09:24:15 AM 29.9634 -95.3935 355° North 277 319 2,900 1,200 Climbing FlightAware ADS-B
Sat 09:24:20 AM 29.9692 -95.3931 North 283 326 3,000 1,091 Climbing FlightAware ADS-B
Sat 09:24:26 AM 29.9782 -95.3908 12° North 289 333 3,100 1,667 Climbing FlightAware ADS-B
Sat 09:24:37 AM 29.9920 -95.3850 20° North 3,400 2,000 Climbing FlightAware ADS-B
Sat 09:24:38 AM 29.9933 -95.3843 25° Northeast 296 341 3,500 1,500 Climbing FlightAware ADS-B
Sat 09:24:53 AM 30.0129 -95.3749 23° Northeast 311 358 3,800 1,263 Climbing FlightAware ADS-B
Sat 09:24:57 AM 30.0170 -95.3730 22° Northeast 276 318 3,900 750 Climbing FlightAware ADS-B
Sat 09:25:09 AM 30.0345 -95.3643 23° Northeast 324 373 4,000 333 Climbing FlightAware ADS-B
Sat 09:25:15 AM 30.0410 -95.3610 24° Northeast 293 337 4,000  Level FlightAware ADS-B
Sat 09:25:26 AM 30.0585 -95.3528 22° Northeast 325 374 4,000  Level FlightAware ADS-B
Sat 09:25:34 AM 30.0670 -95.3490 21° North 311 358 4,000  Level FlightAware ADS-B
Sat 09:25:42 AM 30.0798 -95.3424 24° Northeast 326 375 4,000 -353 Level FlightAware ADS-B
Sat 09:25:51 AM 30.0930 -95.3360 23° Northeast 354 407 3,900 -400 Descending FlightAware ADS-B
Sat 09:25:57 AM 30.1009 -95.3322 23° Northeast 326 375 3,900  Level FlightAware ADS-B
Sat 09:26:10 AM 30.1180 -95.3240 23° Northeast 370 426 3,900 400 Level FlightAware ADS-B
Sat 09:26:12 AM 30.1223 -95.3217 25° Northeast 326 375 4,000 667 Climbing FlightAware ADS-B
Sat 09:26:28 AM 30.1440 -95.3110 23° Northeast 355 409 4,100 1,043 Climbing FlightAware ADS-B
Sat 09:26:35 AM 30.1537 -95.3061 24° Northeast 327 376 4,400 3,000 Climbing FlightAware ADS-B
Sat 09:26:46 AM 30.1690 -95.2990 22° Northeast 333 383 5,000 3,600 Climbing FlightAware ADS-B
Sat 09:26:50 AM 30.1750 -95.2955 27° Northeast 324 373 5,300 3,176 Climbing FlightAware ADS-B
Sat 09:27:03 AM 30.1930 -95.2860 25° Northeast 316 364 5,900 2,625 Climbing FlightAware ADS-B
Sat 09:27:06 AM 30.1962 -95.2845 22° Northeast 324 373 6,000 2,824 Climbing FlightAware ADS-B
Sat 09:27:20 AM 30.2162 -95.2731 26° Northeast 326 375 6,700 3,000 Climbing FlightAware ADS-B
Sat 09:27:22 AM 30.2170 -95.2720 50° Northeast 313 360 6,800 3,429 Climbing FlightAware ADS-B
Sat 09:27:27 AM 30.2257 -95.2676 24° Northeast 326 375 7,100 2,824 Climbing FlightAware ADS-B
Sat 09:27:39 AM 30.2420 -95.2590 25° Northeast 321 369 7,600 2,625 Climbing FlightAware ADS-B
Sat 09:27:43 AM 30.2464 -95.2568 23° Northeast 328 377 7,800 2,842 Climbing FlightAware ADS-B
Sat 09:27:58 AM 30.2670 -95.2460 24° Northeast 321 369 8,500 3,000 Climbing FlightAware ADS-B
Sat 09:28:13 AM 30.2889 -95.2357 22° Northeast 326 375 9,300 3,000 Climbing FlightAware ADS-B
Sat 09:28:16 AM 30.2930 -95.2340 20° North 330 380 9,400 2,571 Climbing FlightAware ADS-B
Sat 09:28:41 AM 30.3288 -95.2165 23° Northeast 332 382 10,500 2,400 Climbing FlightAware ADS-B
Sat 09:28:46 AM 30.3350 -95.2130 26° Northeast 352 405 10,600 750 Climbing FlightAware ADS-B
Sat 09:28:49 AM 30.3392 -95.2109 23° Northeast 337 388 10,600 1,200 Level FlightAware ADS-B
Sat 09:28:56 AM 30.3491 -95.2032 34° Northeast 341 392 10,800 1,333 Climbing FlightAware ADS-B
Sat 09:28:58 AM 30.3510 -95.2020 29° Northeast 338 389 10,800 1,200 Level FlightAware ADS-B
Sat 09:29:01 AM 30.3545 -95.1974 49° Northeast 344 396 10,900 1,655 Climbing FlightAware ADS-B
Sat 09:29:27 AM 30.3831 -95.1603 48° Northeast 362 417 11,600 1,556 Climbing FlightAware ADS-B
Sat 09:29:28 AM 30.3830 -95.1600 111° Southeast 366 421 11,600 1,333 Level FlightAware ADS-B
Sat 09:29:54 AM 30.4117 -95.1183 51° Northeast 385 443 12,200 1,448 Climbing FlightAware ADS-B
Sat 09:29:57 AM 30.4160 -95.1120 52° Northeast 398 458 12,300 1,400 Climbing FlightAware ADS-B
Sat 09:30:24 AM 30.4450 -95.0660 54° Northeast 412 474 12,900 1,459 Climbing FlightAware ADS-B
Sat 09:30:34 AM 30.4550 -95.0500 54° Northeast 399 459 13,200 2,000 Climbing FlightAware ADS-B
Sat 09:30:54 AM 30.4790 -95.0112 54° Northeast 423 487 13,900 2,229 Climbing FlightAware ADS-B
Sat 09:31:09 AM 30.4960 -94.9830 55° Northeast 418 481 14,500 2,516 Climbing FlightAware ADS-B
Sat 09:31:25 AM 30.5141 -94.9546 54° Northeast 430 495 15,200 2,710 Climbing FlightAware ADS-B
Sat 09:31:40 AM 30.5315 -94.9268 54° Northeast 430 495 15,900 2,308 Climbing FlightAware ADS-B
Sat 09:31:51 AM 30.5456 -94.9072 50° Northeast 436 502 16,200 1,800 Climbing FlightAware ADS-B
Sat 09:32:00 AM 30.5596 -94.8912 45° Northeast 439 505 16,500 2,000 Climbing FlightAware ADS-B
Sat 09:32:03 AM 30.5620 -94.8880 49° Northeast 415 478 16,600 1,714 Climbing FlightAware ADS-B
Sat 09:32:14 AM 30.5804 -94.8712 38° Northeast 445 512 16,900 1,800 Climbing FlightAware ADS-B
Sat 09:32:33 AM 30.6150 -94.8440 34° Northeast 477 549 17,500 2,000 Climbing FlightAware ADS-B
Sat 09:32:44 AM 30.6331 -94.8300 34° Northeast 455 524 17,900 2,000 Climbing FlightAware ADS-B
Sat 09:33:09 AM 30.6770 -94.7960 34° Northeast 453 521 18,700 2,000 Climbing FlightAware ADS-B
Sat 09:33:14 AM 30.6865 -94.7892 32° Northeast 463 533 18,900 1,935 Climbing FlightAware ADS-B
Sat 09:33:40 AM 30.7320 -94.7540 34° Northeast 483 556 19,700 1,742 Climbing FlightAware ADS-B
Sat 09:33:45 AM 30.7423 -94.7465 32° Northeast 472 543 19,800 1,667 Climbing FlightAware ADS-B
Sat 09:34:16 AM 30.7980 -94.7040 33° Northeast 469 540 20,700 1,742 Climbing FlightAware ADS-B
Sat 09:34:47 AM 30.8568 -94.6583 34° Northeast 489 563 21,600 1,667 Climbing FlightAware ADS-B
Sat 09:34:52 AM 30.8660 -94.6510 34° Northeast 670 771 21,700 1,600 Climbing FlightAware ADS-B
Sat 09:35:17 AM 30.9146 -94.6136 33° Northeast 498 573 22,400 1,667 Climbing FlightAware ADS-B
Sat 09:35:28 AM 30.9340 -94.5990 33° Northeast 625 719 22,700 1,714 Climbing FlightAware ADS-B
Sat 09:35:52 AM 30.9815 -94.5617 34° Northeast 505 581 23,400 1,688 Climbing FlightAware ADS-B
Sat 09:36:00 AM 30.9960 -94.5500 35° Northeast 522 601 23,600 1,400 Climbing FlightAware ADS-B
Sat 09:36:22 AM 31.0412 -94.5154 33° Northeast 514 592 24,100 1,500 Climbing FlightAware ADS-B
Sat 09:36:36 AM 31.0680 -94.4950 33° Northeast 517 595 24,500 1,500 Climbing FlightAware ADS-B
Sat 09:36:54 AM 31.1053 -94.4656 34° Northeast 523 602 24,900 1,440 Climbing FlightAware ADS-B
Sat 09:37:01 AM 31.1200 -94.4540 34° Northeast 367 422 25,100 1,548 Climbing FlightAware ADS-B
Sat 09:37:25 AM 31.1676 -94.4171 34° Northeast 529 609 25,700 1,667 Climbing FlightAware ADS-B
Sat 09:37:55 AM 31.2292 -94.3691 34° Northeast 530 610 26,600 1,818 Climbing FlightAware ADS-B
Sat 09:38:27 AM 31.2950 -94.3180 34° Northeast 27,600 1,833 Climbing FlightAware ADS-B
Sat 09:38:31 AM 31.3024 -94.3118 36° Northeast 529 609 27,700 1,816 Climbing FlightAware ADS-B
Sat 09:39:43 AM 31.4485 -94.1974 34° Northeast 525 604 29,900 1,731 Climbing FlightAware ADS-B
Sat 09:40:00 AM 31.4790 -94.1730 34° Northeast 30,300 1,500 Climbing FlightAware ADS-B
Sat 09:40:15 AM 31.5125 -94.1472 33° Northeast 521 600 30,700 1,448 Climbing FlightAware ADS-B
Sat 09:40:29 AM 31.5410 -94.1250 34° Northeast 521 600 31,000 346 Climbing FlightAware ADS-B
Sat 09:41:07 AM 31.6160 -94.0660 34° Northeast 514 592 31,000 200 Level FlightAware ADS-B
Sat 09:41:29 AM 31.6600 -94.0310 34° Northeast 523 602 31,200 1,254 Climbing FlightAware ADS-B
Sat 09:42:14 AM 31.7503 -93.9597 34° Northeast 521 600 32,400 336 Climbing FlightAware ADS-B
Sat 09:46:50 AM 32.3032 -93.5189 34° Northeast 531 611 33,000 75 Climbing FlightAware ADS-B
Sat 09:50:14 AM 32.7186 -93.1838 34° Northeast 531 611 33,000  Level FlightAware ADS-B
Sat 09:50:46 AM 32.7669 -93.1394 34° Northeast 530 610 33,000  Level Fort Worth Center
Sat 09:51:46 AM 32.8889 -93.0422 34° Northeast 530 610 33,000  Level Fort Worth Center
Sat 09:52:46 AM 33.0108 -92.9469 33° Northeast 525 604 33,000  Level Fort Worth Center
Sat 09:54:44 AM 33.2547 -92.7372 36° Northeast 543 625 33,000  Level Memphis Center
Sat 09:55:44 AM 33.3386 -92.6100 52° Northeast 546 628 33,000  Level Memphis Center
Sat 09:56:44 AM 33.4369 -92.4731 49° Northeast 540 621 33,000  Level Memphis Center
Sat 09:57:44 AM 33.5289 -92.3383 51° Northeast 532 612 33,000  Level Memphis Center
Sat 09:58:44 AM 33.6208 -92.1983 52° Northeast 526 605 33,000  Level Memphis Center
Sat 09:59:44 AM 33.7083 -92.0603 53° Northeast 519 597 33,000  Level Memphis Center
Sat 10:00:44 AM 33.7978 -91.9219 52° Northeast 525 604 33,000  Level Memphis Center
Sat 10:01:44 AM 33.8869 -91.7836 52° Northeast 525 604 33,000  Level Memphis Center
Sat 10:02:44 AM 33.9825 -91.6322 53° Northeast 518 596 33,000  Level Memphis Center
Sat 10:03:44 AM 34.0589 -91.5081 53° Northeast 518 596 33,000  Level Memphis Center
Sat 10:04:44 AM 34.1478 -91.3711 52° Northeast 518 596 33,000  Level Memphis Center
Sat 10:05:44 AM 34.2364 -91.2289 53° Northeast 518 596 33,000  Level Memphis Center
Sat 10:06:44 AM 34.3228 -91.0939 52° Northeast 518 596 33,000  Level Memphis Center
Sat 10:07:44 AM 34.4133 -90.9564 51° Northeast 524 603 33,000  Level Memphis Center
Sat 10:08:44 AM 34.5017 -90.8158 53° Northeast 519 597 33,000  Level Memphis Center
Sat 10:09:44 AM 34.6106 -90.6800 46° Northeast 513 590 33,000  Level Memphis Center
Sat 10:10:44 AM 34.7172 -90.5642 42° Northeast 503 579 33,000  Level Memphis Center
Sat 10:11:44 AM 34.8217 -90.4481 42° Northeast 509 586 33,000  Level Memphis Center
Sat 10:12:44 AM 34.9261 -90.3267 44° Northeast 515 593 33,000  Level Memphis Center
Sat 10:13:44 AM 35.0114 -90.1847 54° Northeast 515 593 33,000  Level Memphis Center
Sat 10:14:44 AM 35.0944 -90.0372 55° Northeast 522 601 33,000  Level Memphis Center
Sat 10:15:44 AM 35.1672 -89.9025 57° Northeast 527 606 33,000  Level Memphis Center
Sat 10:16:44 AM 35.2458 -89.7519 57° Northeast 527 606 33,000  Level Memphis Center
Sat 10:17:44 AM 35.3242 -89.6011 57° Northeast 522 601 33,000  Level Memphis Center
Sat 10:18:44 AM 35.4025 -89.4528 57° Northeast 522 601 33,000  Level Memphis Center
Sat 10:19:44 AM 35.4867 -89.2936 57° Northeast 522 601 33,000  Level Memphis Center
Sat 10:25:07 AM 35.9020 -88.4960 57° Northeast 523 602 33,000  Level FlightAware ADS-B
Sat 10:25:52 AM 35.9610 -88.3830 57° Northeast 521 600 33,000  Level FlightAware ADS-B
Sat 10:26:37 AM 36.0200 -88.2660 58° Northeast 519 597 33,000  Level FlightAware ADS-B
Sat 10:27:17 AM 36.0670 -88.1710 59° Northeast 519 597 33,000  Level FlightAware ADS-B
Sat 10:28:07 AM 36.1250 -88.0380 62° Northeast 521 600 33,000  Level FlightAware ADS-B
Sat 10:28:52 AM 36.1760 -87.9100 64° Northeast 521 600 33,000  Level FlightAware ADS-B
Sat 10:29:37 AM 36.2220 -87.7920 64° Northeast 520 598 33,000  Level FlightAware ADS-B
Sat 10:30:22 AM 36.2690 -87.6680 65° Northeast 520 598 33,000  Level FlightAware ADS-B
Sat 10:31:02 AM 36.3100 -87.5610 65° Northeast 517 595 33,000  Level FlightAware ADS-B
Sat 10:31:42 AM 36.3520 -87.4530 64° Northeast 515 593 33,000  Level FlightAware ADS-B
Sat 10:32:27 AM 36.3960 -87.3370 65° Northeast 514 592 33,000  Level FlightAware ADS-B
Sat 10:33:07 AM 36.4370 -87.2300 65° Northeast 514 592 33,000  Level FlightAware ADS-B
Sat 10:33:47 AM 36.4780 -87.1220 65° Northeast 514 592 33,000  Level FlightAware ADS-B
Sat 10:34:27 AM 36.5180 -87.0180 64° Northeast 513 590 33,000  Level FlightAware ADS-B
Sat 10:35:12 AM 36.5650 -86.8950 65° Northeast 512 589 33,000  Level FlightAware ADS-B
Sat 10:35:57 AM 36.6100 -86.7770 65° Northeast 509 586 33,000  Level FlightAware ADS-B
Sat 10:36:09 AM 36.6229 -86.7415 66° East 509 586 33,000  Level FlightAware ADS-B
Sat 10:36:39 AM 36.6533 -86.6606 65° Northeast 508 585 33,000  Level FlightAware ADS-B
Sat 10:37:10 AM 36.6840 -86.5788 65° Northeast 506 582 33,000  Level FlightAware ADS-B
Sat 10:37:41 AM 36.7149 -86.4965 65° Northeast 505 581 33,000  Level FlightAware ADS-B
Sat 10:38:12 AM 36.7449 -86.4162 65° Northeast 505 581 33,000  Level FlightAware ADS-B
Sat 10:38:42 AM 36.7747 -86.3358 65° Northeast 504 580 33,000  Level FlightAware ADS-B
Sat 10:39:13 AM 36.8044 -86.2558 65° Northeast 503 579 33,000  Level FlightAware ADS-B
Sat 10:39:43 AM 36.8336 -86.1770 65° Northeast 502 578 33,000  Level FlightAware ADS-B
Sat 10:40:13 AM 36.8630 -86.0975 65° Northeast 501 577 33,000  Level FlightAware ADS-B
Sat 10:40:43 AM 36.8924 -86.0178 65° Northeast 501 577 33,000  Level FlightAware ADS-B
Sat 10:41:42 AM 36.9420 -85.8830 65° Northeast 500 575 33,000  Level FlightAware ADS-B
Sat 10:42:42 AM 37.0000 -85.7240 65° Northeast 500 575 33,000  Level FlightAware ADS-B
Sat 10:42:47 AM 37.0107 -85.6946 65° Northeast 502 578 33,000  Level FlightAware ADS-B
Sat 10:43:19 AM 37.0423 -85.6079 65° Northeast 502 578 33,000  Level FlightAware ADS-B
Sat 10:43:51 AM 37.0729 -85.5236 66° East 500 575 33,000  Level FlightAware ADS-B
Sat 10:44:23 AM 37.1029 -85.4405 66° East 499 574 33,000  Level FlightAware ADS-B
Sat 10:44:54 AM 37.1327 -85.3580 66° East 499 574 33,000  Level FlightAware ADS-B
Sat 10:45:24 AM 37.1611 -85.2789 66° East 498 573 33,000  Level FlightAware ADS-B
Sat 10:45:55 AM 37.1898 -85.1989 66° East 498 573 33,000  Level FlightAware ADS-B
Sat 10:46:26 AM 37.2187 -85.1182 66° East 497 572 33,000  Level FlightAware ADS-B
Sat 10:46:56 AM 37.2470 -85.0386 66° East 497 572 33,000  Level FlightAware ADS-B
Sat 10:47:27 AM 37.2756 -84.9582 66° East 497 572 33,000  Level FlightAware ADS-B
Sat 10:47:58 AM 37.3044 -84.8770 66° East 497 572 33,000  Level FlightAware ADS-B
Sat 10:48:28 AM 37.3328 -84.7968 66° East 497 572 33,000  Level FlightAware ADS-B
Sat 10:48:58 AM 37.3612 -84.7165 66° East 500 575 33,000  Level FlightAware ADS-B
Sat 10:49:28 AM 37.3894 -84.6366 66° East 501 577 33,000  Level FlightAware ADS-B
Sat 10:49:59 AM 37.4179 -84.5553 66° East 502 578 33,000  Level FlightAware ADS-B
Sat 10:50:29 AM 37.4461 -84.4751 66° East 501 577 33,000  Level FlightAware ADS-B
Sat 10:50:59 AM 37.4744 -84.3941 66° East 501 577 33,000  Level FlightAware ADS-B
Sat 10:51:31 AM 37.5038 -84.3096 66° East 501 577 33,000  Level FlightAware ADS-B
Sat 10:52:15 AM 37.5439 -84.1940 66° East 500 575 33,000  Level FlightAware ADS-B
Sat 10:52:48 AM 37.5751 -84.1039 66° East 499 574 33,000  Level FlightAware ADS-B
Sat 10:53:19 AM 37.6027 -84.0237 67° East 500 575 33,000  Level FlightAware ADS-B
Sat 10:53:51 AM 37.6329 -83.9360 66° East 499 574 33,000  Level FlightAware ADS-B
Sat 10:54:22 AM 37.6608 -83.8545 67° East 499 574 33,000  Level FlightAware ADS-B
Sat 10:54:52 AM 37.6885 -83.7735 67° East 498 573 33,000  Level FlightAware ADS-B
Sat 10:55:32 AM 37.7243 -83.6686 67° East 497 572 33,000  Level FlightAware ADS-B
Sat 10:56:11 AM 37.7595 -83.5650 67° East 497 572 33,000  Level FlightAware ADS-B
Sat 10:56:41 AM 37.7871 -83.4839 67° East 498 573 33,000  Level FlightAware ADS-B
Sat 10:57:15 AM 37.8178 -83.3929 67° East 499 574 33,000  Level FlightAware ADS-B
Sat 10:58:29 AM 37.8841 -83.1951 67° East 501 577 33,000  Level FlightAware ADS-B
Sat 10:59:42 AM 37.9490 -83.0010 67° East 500 575 33,000  Level FlightAware ADS-B
Sat 11:00:22 AM 37.9850 -82.8940 67° East 499 574 33,000  Level FlightAware ADS-B
Sat 11:00:46 AM 38.0078 -82.8236 68° East 500 575 33,000  Level FlightAware ADS-B
Sat 11:01:28 AM 38.0445 -82.7126 67° East 499 574 33,000  Level FlightAware ADS-B
Sat 11:02:27 AM 38.0960 -82.5550 67° East 502 578 33,000  Level FlightAware ADS-B
Sat 11:03:07 AM 38.1310 -82.4480 67° East 503 579 33,000  Level FlightAware ADS-B
Sat 11:03:52 AM 38.1710 -82.3270 67° East 502 578 33,000  Level FlightAware ADS-B
Sat 11:04:32 AM 38.2060 -82.2180 68° East 503 579 33,000  Level FlightAware ADS-B
Sat 11:05:17 AM 38.2470 -82.0920 67° East 504 580 33,000  Level FlightAware ADS-B
Sat 11:05:57 AM 38.2820 -81.9820 68° East 504 580 33,000  Level FlightAware ADS-B
Sat 11:06:23 AM 38.3054 -81.9086 68° East 505 581 33,000  Level FlightAware ADS-B
Sat 11:07:22 AM 38.3510 -81.7520 70° East 501 577 33,000  Level FlightAware ADS-B
Sat 11:08:02 AM 38.3710 -81.6360 78° East 502 578 33,000  Level FlightAware ADS-B
Sat 11:08:47 AM 38.4020 -81.5060 73° East 501 577 33,000  Level FlightAware ADS-B
Sat 11:09:27 AM 38.4270 -81.3940 74° East 500 575 33,000  Level FlightAware ADS-B
Sat 11:10:12 AM 38.4530 -81.2650 76° East 499 574 33,000  Level FlightAware ADS-B
Sat 11:10:52 AM 38.4740 -81.1530 76° East 499 574 33,000  Level FlightAware ADS-B
Sat 11:11:32 AM 38.4960 -81.0380 76° East 497 572 33,000  Level FlightAware ADS-B
Sat 11:12:17 AM 38.5210 -80.9080 76° East 496 571 33,000  Level FlightAware ADS-B
Sat 11:13:12 AM 38.5510 -80.7550 76° East 496 571 33,000  Level FlightAware ADS-B
Sat 11:13:52 AM 38.5730 -80.6410 76° East 497 572 33,000  Level FlightAware ADS-B
Sat 11:14:37 AM 38.5970 -80.5150 76° East 498 573 33,000  Level FlightAware ADS-B
Sat 11:15:17 AM 38.6200 -80.3960 76° East 500 575 33,000  Level FlightAware ADS-B
Sat 11:16:02 AM 38.6440 -80.2670 77° East 499 574 33,000  Level FlightAware ADS-B
Sat 11:16:42 AM 38.6660 -80.1510 76° East 500 575 33,000  Level FlightAware ADS-B
Sat 11:17:22 AM 38.6870 -80.0370 77° East 501 577 33,000  Level FlightAware ADS-B
Sat 11:18:02 AM 38.7080 -79.9240 77° East 501 577 33,000  Level FlightAware ADS-B
Sat 11:18:47 AM 38.7330 -79.7910 76° East 502 578 33,000  Level FlightAware ADS-B
Sat 11:19:27 AM 38.7530 -79.6790 77° East 503 579 33,000  Level FlightAware ADS-B
Sat 11:20:12 AM 38.7770 -79.5510 76° East 503 579 33,000  Level FlightAware ADS-B
Sat 11:20:52 AM 38.7970 -79.4380 77° East 505 581 33,000  Level FlightAware ADS-B
Sat 11:21:32 AM 38.8180 -79.3230 77° East 506 582 33,000  Level FlightAware ADS-B
Sat 11:22:17 AM 38.8480 -79.1870 74° East 507 583 33,000  Level FlightAware ADS-B
Sat 11:22:57 AM 38.8880 -79.0800 64° Northeast 508 585 33,000  Level FlightAware ADS-B
Sat 11:23:42 AM 38.9400 -78.9550 62° Northeast 507 583 33,000  Level FlightAware ADS-B
Sat 11:24:22 AM 38.9830 -78.8500 62° Northeast 508 585 33,000  Level FlightAware ADS-B
Sat 11:25:07 AM 39.0280 -78.7400 62° Northeast 507 583 33,000  Level FlightAware ADS-B
Sat 11:25:47 AM 39.0750 -78.6240 62° Northeast 508 585 33,000  Level FlightAware ADS-B
Sat 11:26:27 AM 39.1180 -78.5180 62° Northeast 508 585 33,000  Level FlightAware ADS-B
Sat 11:27:12 AM 39.1670 -78.3970 62° Northeast 509 586 33,000  Level FlightAware ADS-B
Sat 11:27:52 AM 39.2100 -78.2900 63° Northeast 509 586 33,000  Level FlightAware ADS-B
Sat 11:28:37 AM 39.2600 -78.1660 62° Northeast 510 587 33,000  Level FlightAware ADS-B
Sat 11:28:51 AM 39.2759 -78.1248 63° Northeast 510 587 33,000  Level FlightAware ADS-B
Sat 11:29:28 AM 39.3166 -78.0225 63° Northeast 511 588 33,000  Level FlightAware ADS-B
Sat 11:30:00 AM 39.3502 -77.9378 63° Northeast 513 590 33,000  Level FlightAware ADS-B
Sat 11:30:30 AM 39.3835 -77.8538 63° Northeast 514 592 33,000  Level FlightAware ADS-B
Sat 11:30:54 AM 39.4099 -77.7917 61° Northeast 514 592 33,000  Level FlightAware ADS-B
Sat 11:31:26 AM 39.4513 -77.7088 57° Northeast 514 592 33,000  Level FlightAware ADS-B
Sat 11:31:57 AM 39.4919 -77.6277 57° Northeast 515 593 33,000  Level FlightAware ADS-B
Sat 11:32:29 AM 39.5329 -77.5440 58° Northeast 515 593 33,000  Level FlightAware ADS-B
Sat 11:33:00 AM 39.5718 -77.4630 58° Northeast 516 594 33,000  Level FlightAware ADS-B
Sat 11:33:32 AM 39.6114 -77.3797 58° Northeast 515 593 33,000  Level FlightAware ADS-B
Sat 11:34:02 AM 39.6493 -77.3014 58° Northeast 515 593 33,000  Level FlightAware ADS-B
Sat 11:34:32 AM 39.6874 -77.2228 58° Northeast 517 595 33,000  Level FlightAware ADS-B
Sat 11:35:03 AM 39.7265 -77.1416 58° Northeast 517 595 33,000  Level FlightAware ADS-B
Sat 11:35:33 AM 39.7645 -77.0623 58° Northeast 518 596 33,000  Level FlightAware ADS-B
Sat 11:36:07 AM 39.8074 -76.9723 58° Northeast 517 595 33,000  Level FlightAware ADS-B
Sat 11:36:39 AM 39.8480 -76.8871 58° Northeast 516 594 33,000  Level FlightAware ADS-B
Sat 11:37:10 AM 39.8856 -76.8077 58° Northeast 517 595 33,000  Level FlightAware ADS-B
Sat 11:37:42 AM 39.9240 -76.7260 58° Northeast 516 594 33,000  Level FlightAware ADS-B
Sat 11:37:49 AM 39.9346 -76.7042 58° Northeast 517 595 33,000  Level FlightAware ADS-B
Sat 11:38:19 AM 39.9722 -76.6246 58° Northeast 518 596 33,000  Level FlightAware ADS-B
Sat 11:38:49 AM 40.0103 -76.5438 58° Northeast 519 597 33,000  Level FlightAware ADS-B
Sat 11:39:20 AM 40.0489 -76.4618 58° Northeast 521 600 33,000  Level FlightAware ADS-B
Sat 11:39:50 AM 40.0865 -76.3815 59° Northeast 521 600 33,000  Level FlightAware ADS-B
Sat 11:40:21 AM 40.1251 -76.2988 59° Northeast 522 601 33,000  Level FlightAware ADS-B
Sat 11:40:51 AM 40.1629 -76.2180 59° Northeast 522 601 33,000  Level FlightAware ADS-B
Sat 11:41:21 AM 40.2010 -76.1361 59° Northeast 523 602 33,000  Level FlightAware ADS-B
Sat 11:41:53 AM 40.2405 -76.0509 59° Northeast 524 603 33,000  Level FlightAware ADS-B
Sat 11:42:23 AM 40.2781 -75.9695 59° Northeast 524 603 33,000  Level FlightAware ADS-B
Sat 11:42:53 AM 40.3165 -75.8864 59° Northeast 525 604 33,000  Level FlightAware ADS-B
Sat 11:43:25 AM 40.3559 -75.8009 59° Northeast 525 604 33,000  Level FlightAware ADS-B
Sat 11:43:55 AM 40.3934 -75.7190 59° Northeast 527 606 33,000  Level FlightAware ADS-B
Sat 11:44:25 AM 40.4313 -75.6364 59° Northeast 528 608 33,000 295 Level FlightAware ADS-B
Sat 11:44:56 AM 40.4701 -75.5514 59° Northeast 530 610 33,300 968 Climbing FlightAware ADS-B
Sat 11:45:27 AM 40.5084 -75.4670 59° Northeast 528 608 34,000 1,355 Climbing FlightAware ADS-B
Sat 11:45:58 AM 40.5470 -75.3821 59° Northeast 525 604 34,700 984 Climbing FlightAware ADS-B
Sat 11:46:28 AM 40.5842 -75.2999 59° Northeast 527 606 35,000 295 Climbing FlightAware ADS-B
Sat 11:46:59 AM 40.6233 -75.2134 59° Northeast 525 604 35,000  Level FlightAware ADS-B
Sat 11:47:29 AM 40.6608 -75.1303 59° Northeast 525 604 35,000  Level FlightAware ADS-B
Sat 11:48:02 AM 40.7004 -75.0421 59° Northeast 523 602 35,000  Level FlightAware ADS-B
Sat 11:48:32 AM 40.7372 -74.9597 59° Northeast 522 601 35,000  Level FlightAware ADS-B
Sat 11:49:02 AM 40.7749 -74.8754 59° Northeast 522 601 35,000  Level FlightAware ADS-B
Sat 11:49:33 AM 40.8127 -74.7905 60° Northeast 521 600 35,000  Level FlightAware ADS-B
Sat 11:50:06 AM 40.8521 -74.7015 60° Northeast 521 600 35,000  Level FlightAware ADS-B
Sat 11:50:36 AM 40.8891 -74.6182 60° Northeast 522 601 35,000  Level FlightAware ADS-B
Sat 11:51:07 AM 40.9264 -74.5334 60° Northeast 522 601 35,000  Level FlightAware ADS-B
Sat 11:51:38 AM 40.9636 -74.4489 60° Northeast 523 602 35,000  Level FlightAware ADS-B
Sat 11:52:09 AM 41.0008 -74.3642 60° Northeast 522 601 35,000  Level FlightAware ADS-B
Sat 11:52:39 AM 41.0375 -74.2806 60° Northeast 522 601 35,000  Level FlightAware ADS-B
Sat 11:53:10 AM 41.0747 -74.1954 60° Northeast 523 602 35,000  Level FlightAware ADS-B
Sat 11:53:40 AM 41.1115 -74.1110 60° Northeast 524 603 35,000  Level FlightAware ADS-B
Sat 11:54:10 AM 41.1479 -74.0269 60° Northeast 523 602 35,000  Level FlightAware ADS-B
Sat 11:54:41 AM 41.1848 -73.9415 60° Northeast 523 602 35,000  Level FlightAware ADS-B
Sat 11:55:12 AM 41.2216 -73.8557 60° Northeast 524 603 35,000  Level FlightAware ADS-B
Sat 11:55:29 AM 41.2422 -73.8080 60° Northeast 524 603 35,000  Level FlightAware ADS-B
Sat 11:55:42 AM 41.2582 -73.7709 60° Northeast 524 603 35,000  Level FlightAware ADS-B
Sat 11:56:04 AM 41.2851 -73.7096 60° Northeast 523 602 35,000  Level FlightAware ADS-B
Sat 11:56:14 AM 41.2976 -73.6854 55° Northeast 517 595 35,000  Level FlightAware ADS-B
Sat 11:56:22 AM 41.3102 -73.6650 51° Northeast 512 589 35,000  Level FlightAware ADS-B
Sat 11:56:35 AM 41.3322 -73.6362 45° Northeast 504 580 35,000  Level FlightAware ADS-B
Sat 11:56:56 AM 41.3690 -73.5963 39° Northeast 505 581 35,000  Level FlightAware ADS-B
Sat 11:57:09 AM 41.3903 -73.5680 45° Northeast 513 590 35,000  Level FlightAware ADS-B
Sat 11:57:27 AM 41.4164 -73.5203 54° Northeast 528 608 35,000  Level FlightAware ADS-B
Sat 11:57:57 AM 41.4528 -73.4352 60° Northeast 531 611 35,000  Level FlightAware ADS-B
Sat 11:58:27 AM 41.4890 -73.3485 61° Northeast 530 610 35,000  Level FlightAware ADS-B
Sat 11:59:02 AM 41.5307 -73.2483 61° Northeast 530 610 35,000  Level FlightAware ADS-B
Sat 11:59:36 AM 41.5699 -73.1541 61° Northeast 529 609 35,000  Level FlightAware ADS-B
Sat 12:00:07 PM 41.6070 -73.0650 61° Northeast 528 608 35,000  Level FlightAware ADS-B
Sat 12:00:52 PM 41.6540 -72.9530 61° Northeast 528 608 35,000  Level FlightAware ADS-B
Sat 12:01:22 PM 41.6960 -72.8509 61° Northeast 528 608 35,000  Level FlightAware ADS-B
Sat 12:01:53 PM 41.7318 -72.7644 61° Northeast 528 608 35,000  Level FlightAware ADS-B
Sat 12:02:26 PM 41.7711 -72.6694 61° Northeast 526 605 35,000  Level FlightAware ADS-B
Sat 12:02:57 PM 41.8074 -72.5810 61° Northeast 527 606 35,000  Level FlightAware ADS-B
Sat 12:03:52 PM 41.8690 -72.4310 61° Northeast 526 605 35,000  Level FlightAware ADS-B
Sat 12:05:02 PM 41.9480 -72.2370 61° Northeast 528 608 35,000  Level FlightAware ADS-B
Sat 12:05:47 PM 42.0050 -72.0950 62° Northeast 530 610 35,000  Level FlightAware ADS-B
Sat 12:06:27 PM 42.0480 -71.9870 62° Northeast 532 612 35,000  Level FlightAware ADS-B
Sat 12:07:07 PM 42.0970 -71.8650 62° Northeast 533 613 35,000  Level FlightAware ADS-B
Sat 12:07:52 PM 42.1490 -71.7350 62° Northeast 534 615 35,000  Level FlightAware ADS-B
Sat 12:08:32 PM 42.1960 -71.6180 62° Northeast 533 613 35,000  Level FlightAware ADS-B
Sat 12:09:17 PM 42.2490 -71.4840 62° Northeast 533 613 35,000  Level FlightAware ADS-B
Sat 12:09:57 PM 42.2950 -71.3680 62° Northeast 533 613 35,000  Level FlightAware ADS-B
Sat 12:10:37 PM 42.3410 -71.2500 62° Northeast 533 613 35,000  Level FlightAware ADS-B
Sat 12:11:22 PM 42.3910 -71.1230 62° Northeast 532 612 35,000  Level FlightAware ADS-B
Sat 12:12:02 PM 42.4370 -71.0040 62° Northeast 532 612 35,000  Level FlightAware ADS-B
Sat 12:12:47 PM 42.4900 -70.8670 62° Northeast 532 612 35,000  Level FlightAware ADS-B
Sat 12:13:27 PM 42.5350 -70.7490 63° Northeast 531 611 35,000  Level FlightAware ADS-B
Sat 12:14:07 PM 42.5820 -70.6290 62° Northeast 530 610 35,000  Level FlightAware ADS-B
Sat 12:14:52 PM 42.6300 -70.5030 63° Northeast 529 609 35,000  Level FlightAware ADS-B
Sat 12:15:32 PM 42.6760 -70.3820 63° Northeast 530 610 35,000  Level FlightAware ADS-B
Sat 12:16:17 PM 42.7260 -70.2490 63° Northeast 530 610 35,000  Level FlightAware ADS-B
Sat 12:16:57 PM 42.7720 -70.1280 63° Northeast 528 608 35,000  Level FlightAware ADS-B
Sat 12:17:37 PM 42.8160 -70.0090 63° Northeast 525 604 35,000  Level FlightAware ADS-B
Sat 12:18:22 PM 42.8650 -69.8790 63° Northeast 525 604 35,000  Level FlightAware ADS-B
Sat 12:19:02 PM 42.9080 -69.7640 63° Northeast 525 604 35,000  Level FlightAware ADS-B
Sat 12:19:47 PM 42.9560 -69.6360 63° Northeast 520 598 35,000  Level FlightAware ADS-B
Sat 12:20:27 PM 42.9980 -69.5210 63° Northeast 517 595 35,000  Level FlightAware ADS-B
Sat 12:21:07 PM 43.0420 -69.4020 63° Northeast 515 593 35,000  Level FlightAware ADS-B
Sat 12:21:52 PM 43.0900 -69.2710 63° Northeast 513 590 35,000  Level FlightAware ADS-B
Sat 12:22:32 PM 43.1330 -69.1530 63° Northeast 517 595 35,000  Level FlightAware ADS-B
Sat 12:23:17 PM 43.1800 -69.0220 64° Northeast 513 590 35,000  Level FlightAware ADS-B
Sat 12:23:57 PM 43.2210 -68.9100 63° Northeast 512 589 35,000  Level FlightAware ADS-B
Sat 12:24:37 PM 43.2630 -68.7930 64° Northeast 512 589 35,000  Level FlightAware ADS-B
Sat 12:25:17 PM 43.3040 -68.6770 64° Northeast 512 589 35,000  Level FlightAware ADS-B
Sat 12:26:07 PM 43.3540 -68.5400 63° Northeast 512 589 35,000  Level FlightAware ADS-B
Sat 12:26:52 PM 43.3970 -68.4210 64° Northeast 512 589 35,000  Level FlightAware ADS-B
Sat 12:27:32 PM 43.4340 -68.3230 63° Northeast 512 589 35,000  Level FlightAware ADS-B
Sat 12:28:22 PM 43.4950 -68.1390 65° Northeast 513 590 35,000  Level FlightAware ADS-B
Sat 12:29:02 PM 43.5360 -68.0210 64° Northeast 515 593 35,000  Level FlightAware ADS-B
Sat 12:29:42 PM 43.5780 -67.9020 64° Northeast 513 590 35,000  Level FlightAware ADS-B
Sat 12:30:42 PM 43.6400 -67.7210 65° Northeast 516 594 35,000  Level FlightAware ADS-B
Sat 12:31:22 PM 43.6810 -67.6030 64° Northeast 513 590 35,000  Level FlightAware ADS-B
Sat 12:32:02 PM 43.7230 -67.4820 64° Northeast 513 590 35,000  Level FlightAware ADS-B
Sat 12:32:37 PM 43.7580 -67.3780 65° Northeast 513 590 35,000  Level FlightAware ADS-B
Sat 12:33:27 PM 43.8090 -67.2300 64° Northeast 512 589 35,000  Level FlightAware ADS-B
Sat 12:34:12 PM 43.8550 -67.0920 65° Northeast 511 588 35,000  Level FlightAware ADS-B
Sat 12:34:52 PM 43.8960 -66.9710 65° Northeast 511 588 35,000  Level FlightAware ADS-B
Sat 12:35:32 PM 43.9350 -66.8540 65° Northeast 510 587 35,000  Level FlightAware ADS-B
Sat 12:36:17 PM 43.9790 -66.7210 65° Northeast 512 589 35,000  Level FlightAware ADS-B
Sat 12:36:57 PM 44.0200 -66.5990 65° Northeast 511 588 35,000  Level FlightAware ADS-B
Sat 12:37:42 PM 44.0650 -66.4610 66° East 516 594 35,000  Level FlightAware ADS-B
Sat 12:38:22 PM 44.1050 -66.3400 65° Northeast 517 595 35,000  Level FlightAware ADS-B
Sat 12:39:07 PM 44.1500 -66.2040 65° Northeast 516 594 35,000  Level FlightAware ADS-B
Sat 12:39:47 PM 44.1900 -66.0810 66° East 516 594 35,000  Level FlightAware ADS-B
Sat 12:40:27 PM 44.2290 -65.9610 66° East 516 594 35,000  Level FlightAware ADS-B
Sat 12:41:12 PM 44.2720 -65.8270 66° East 517 595 35,000  Level FlightAware ADS-B
Sat 12:41:52 PM 44.3120 -65.7020 66° East 517 595 35,000  Level FlightAware ADS-B
Sat 12:42:37 PM 44.3540 -65.5700 66° East 517 595 35,000  Level FlightAware ADS-B
Sat 12:43:17 PM 44.3940 -65.4450 66° East 516 594 35,000  Level FlightAware ADS-B
Sat 12:43:57 PM 44.4320 -65.3240 66° East 515 593 35,000  Level FlightAware ADS-B
Sat 12:44:42 PM 44.4750 -65.1890 66° East 515 593 35,000  Level FlightAware ADS-B
Sat 12:45:22 PM 44.5110 -65.0720 67° East 511 588 35,000  Level FlightAware ADS-B
Sat 12:46:02 PM 44.5510 -64.9430 66° East 513 590 35,000  Level FlightAware ADS-B
Sat 12:46:47 PM 44.5950 -64.8040 66° East 514 592 35,000  Level FlightAware ADS-B
Sat 12:47:27 PM 44.6330 -64.6790 67° East 515 593 35,000  Level FlightAware ADS-B
Sat 12:48:12 PM 44.6750 -64.5420 67° East 514 592 35,000  Level FlightAware ADS-B
Sat 12:48:52 PM 44.7130 -64.4190 66° East 515 593 35,000  Level FlightAware ADS-B
Sat 12:49:37 PM 44.7550 -64.2800 67° East 514 592 35,000  Level FlightAware ADS-B
Sat 12:50:17 PM 44.7930 -64.1550 67° East 513 590 35,000  Level FlightAware ADS-B
Sat 12:51:02 PM 44.8340 -64.0180 67° East 513 590 35,000  Level FlightAware ADS-B
Sat 12:51:42 PM 44.8710 -63.8920 67° East 513 590 35,000  Level FlightAware ADS-B
Sat 12:52:22 PM 44.9070 -63.7720 67° East 514 592 35,000  Level FlightAware ADS-B
Sat 12:52:57 PM 44.9390 -63.6660 67° East 514 592 35,000  Level FlightAware ADS-B
Sat 12:53:47 PM 44.9840 -63.5130 67° East 513 590 35,000  Level FlightAware ADS-B
Sat 12:54:32 PM 45.0240 -63.3750 68° East 514 592 35,000  Level FlightAware ADS-B
Sat 12:55:07 PM 45.0570 -63.2630 67° East 514 592 35,000  Level FlightAware ADS-B
Sat 12:55:47 PM 44.9030 -63.7860 248° West 515 593 35,000  Level FlightAware ADS-B
Sat 12:56:27 PM 44.9370 -63.6710 67° East 515 593 35,000  Level FlightAware ADS-B
Sat 12:57:12 PM 44.9750 -63.5450 67° East 515 593 35,000  Level FlightAware ADS-B
Sat 12:58:02 PM 45.0140 -63.4130 67° East 515 593 35,000  Level FlightAware ADS-B
Sat 12:58:42 PM 45.0460 -63.3070 67° East 515 593 35,000  Level FlightAware ADS-B
Sat 12:59:22 PM 45.0780 -63.2020 67° East 515 593 35,000  Level FlightAware ADS-B
Sat 01:00:02 PM 45.1090 -63.0960 67° East 515 593 35,000  Level FlightAware ADS-B
Sat 01:00:42 PM 45.1410 -62.9900 67° East 515 593 35,000  Level FlightAware ADS-B
Sat 01:01:32 PM 45.1810 -62.8580 67° East 515 593 35,000  Level FlightAware ADS-B
Sat 01:02:12 PM 45.2120 -62.7520 67° East 515 593 35,000  Level FlightAware ADS-B
Sat 01:02:52 PM 45.2440 -62.6460 67° East 515 593 35,000  Level FlightAware ADS-B
Sat 01:03:32 PM 45.2760 -62.5410 67° East 515 593 35,000  Level FlightAware ADS-B
Sat 01:04:12 PM 45.3070 -62.4340 68° East 515 593 35,000  Level FlightAware ADS-B
Sat 01:05:02 PM 45.3470 -62.3020 67° East 515 593 35,000  Level FlightAware ADS-B
Sat 01:05:42 PM 45.3780 -62.1960 67° East 515 593 35,000  Level FlightAware ADS-B
Sat 01:06:22 PM 45.4100 -62.0900 67° East 515 593 35,000  Level FlightAware ADS-B
Sat 01:07:07 PM 45.6930 -60.9720 70° East 517 595 35,000  Level FlightAware ADS-B
Sat 01:07:47 PM 45.7260 -60.8460 69° East 515 593 35,000  Level FlightAware ADS-B
Sat 01:08:32 PM 45.7650 -60.6960 70° East 513 590 35,000  Level FlightAware ADS-B
Sat 01:09:12 PM 45.7990 -60.5680 69° East 513 590 35,000  Level FlightAware ADS-B
Sat 01:09:57 PM 45.8340 -60.4300 70° East 512 589 35,000  Level FlightAware ADS-B
Sat 01:10:37 PM 45.8670 -60.3020 70° East 514 592 35,000  Level FlightAware ADS-B
Sat 01:11:17 PM 45.9000 -60.1740 70° East 516 594 35,000  Level FlightAware ADS-B
Sat 01:12:02 PM 45.9370 -60.0290 70° East 516 594 35,000  Level FlightAware ADS-B
Sat 01:12:42 PM 45.9700 -59.8980 70° East 518 596 35,000  Level FlightAware ADS-B
Sat 01:13:22 PM 46.0030 -59.7680 70° East 518 596 35,000  Level FlightAware ADS-B
Sat 01:14:07 PM 46.0390 -59.6260 70° East 519 597 35,000  Level FlightAware ADS-B
Sat 01:14:47 PM 46.0710 -59.4960 70° East 519 597 35,000  Level FlightAware ADS-B
Sat 01:15:32 PM 46.1080 -59.3480 70° East 519 597 35,000  Level FlightAware ADS-B
Sat 01:16:12 PM 46.1400 -59.2170 71° East 519 597 35,000  Level FlightAware ADS-B
Sat 01:16:52 PM 46.1720 -59.0850 71° East 521 600 35,000  Level FlightAware ADS-B
Sat 01:17:37 PM 46.2060 -58.9430 71° East 524 603 35,000  Level FlightAware ADS-B
Sat 01:18:17 PM 46.2390 -58.8100 70° East 524 603 35,000  Level FlightAware ADS-B
Sat 01:19:02 PM 46.2750 -58.6570 71° East 525 604 35,000  Level FlightAware ADS-B
Sat 01:19:42 PM 46.3070 -58.5240 71° East 526 605 35,000  Level FlightAware ADS-B
Sat 01:20:22 PM 46.3380 -58.3930 71° East 527 606 35,000  Level FlightAware ADS-B
Sat 01:21:07 PM 46.3730 -58.2470 71° East 526 605 35,000  Level FlightAware ADS-B
Sat 01:21:47 PM 46.4040 -58.1110 72° East 526 605 35,000  Level FlightAware ADS-B
Sat 01:22:42 PM 46.4450 -57.9370 71° East 527 606 35,000  Level FlightAware ADS-B
Sat 01:23:37 PM 46.4860 -57.7570 72° East 527 606 35,000  Level FlightAware ADS-B
Sat 01:24:17 PM 46.5170 -57.6270 71° East 526 605 35,000  Level FlightAware ADS-B
Sat 01:24:57 PM 46.5430 -57.5130 72° East 526 605 35,000  Level FlightAware ADS-B
Sat 01:25:47 PM 46.5770 -57.3710 71° East 526 605 35,000  Level FlightAware ADS-B
Sat 01:26:27 PM 46.6140 -57.1920 73° East 523 602 35,000  Level FlightAware ADS-B
Sat 01:27:12 PM 46.6490 -57.0360 72° East 523 602 35,000  Level FlightAware ADS-B
Sat 01:27:52 PM 46.6780 -56.9030 72° East 522 601 35,000  Level FlightAware ADS-B
Sat 01:28:32 PM 46.7070 -56.7730 72° East 523 602 35,000  Level FlightAware ADS-B
Sat 01:29:17 PM 46.7410 -56.6220 72° East 524 603 35,000  Level FlightAware ADS-B
Sat 01:29:57 PM 46.7720 -56.4840 72° East 524 603 35,000  Level FlightAware ADS-B
Sat 01:30:42 PM 46.8060 -56.3320 72° East 524 603 35,000  Level FlightAware ADS-B
Sat 01:31:22 PM 46.8350 -56.1990 72° East 523 602 35,000  Level FlightAware ADS-B
Sat 01:32:07 PM 46.8680 -56.0470 72° East 525 604 35,000  Level FlightAware ADS-B
Sat 01:32:47 PM 46.8970 -55.9140 72° East 526 605 35,000  Level FlightAware ADS-B
Sat 01:33:27 PM 46.9270 -55.7760 72° East 526 605 35,000  Level FlightAware ADS-B
Sat 01:34:12 PM 46.9590 -55.6270 72° East 526 605 35,000  Level FlightAware ADS-B
Sat 01:34:52 PM 46.9880 -55.4910 73° East 527 606 35,000  Level FlightAware ADS-B
Sat 01:35:32 PM 47.0170 -55.3520 73° East 527 606 35,000  Level FlightAware ADS-B
Sat 01:36:17 PM 47.0490 -55.1980 73° East 529 609 35,000  Level FlightAware ADS-B
Sat 01:36:57 PM 47.0780 -55.0590 73° East 529 609 35,000  Level FlightAware ADS-B
Sat 01:37:37 PM 47.1070 -54.9220 73° East 528 608 35,000  Level FlightAware ADS-B
Sat 01:38:27 PM 47.1410 -54.7550 73° East 526 605 35,000  Level FlightAware ADS-B
Sat 01:39:07 PM 47.1700 -54.6150 73° East 524 603 35,000  Level FlightAware ADS-B
Sat 01:39:47 PM 47.1970 -54.4810 73° East 524 603 35,000  Level FlightAware ADS-B
Sat 01:40:32 PM 47.2270 -54.3290 74° East 524 603 35,000  Level FlightAware ADS-B
Sat 01:41:12 PM 47.2550 -54.1890 74° East 525 604 35,000  Level FlightAware ADS-B
Sat 01:41:52 PM 47.2820 -54.0550 73° East 525 604 35,000  Level FlightAware ADS-B
Sat 01:42:37 PM 47.3130 -53.8970 74° East 526 605 35,000  Level FlightAware ADS-B
Sat 01:43:17 PM 47.3400 -53.7590 74° East 527 606 35,000  Level FlightAware ADS-B
Sat 01:44:02 PM 47.3690 -53.6080 74° East 529 609 35,000  Level FlightAware ADS-B
Sat 01:44:42 PM 47.3960 -53.4690 74° East 528 608 35,000  Level FlightAware ADS-B
Sat 01:45:22 PM 47.4220 -53.3320 74° East 529 609 35,000  Level FlightAware ADS-B
Sat 01:46:07 PM 47.4520 -53.1710 75° East 531 611 35,000  Level FlightAware ADS-B
Sat 01:46:47 PM 47.4780 -53.0330 74° East 532 612 35,000  Level FlightAware ADS-B
Sat 01:47:32 PM 47.5080 -52.8740 74° East 533 613 35,000  Level FlightAware ADS-B
Sat 01:48:12 PM 47.5340 -52.7330 75° East 536 617 35,000  Level FlightAware ADS-B
Sat 01:48:52 PM 47.5600 -52.5930 75° East 538 619 35,000  Level FlightAware ADS-B
Sat 01:49:37 PM 47.5890 -52.4300 75° East 540 621 35,000  Level FlightAware ADS-B
Sat 01:50:17 PM 47.6140 -52.2940 75° East 542 624 35,000  Level FlightAware ADS-B
Sat 01:50:57 PM 47.6400 -52.1480 75° East 541 623 35,000  Level FlightAware ADS-B
Sat 01:51:42 PM 47.6670 -51.9960 75° East 541 623 35,000  Level FlightAware ADS-B
Sat 01:52:22 PM 47.6940 -51.8430 75° East 541 623 35,000  Level FlightAware ADS-B
Sat 01:53:07 PM 47.7230 -51.6730 76° East 541 623 35,000  Level FlightAware ADS-B
Sat 01:53:47 PM 47.7490 -51.5290 75° East 542 624 35,000  Level FlightAware ADS-B
Sat 01:54:42 PM 47.6170 -52.2750 256° West 542 624 35,000  Level FlightAware ADS-B
Sat 01:55:37 PM 47.6480 -52.1020 75° East 542 624 35,000  Level FlightAware ADS-B
Sat 01:56:37 PM 47.6770 -51.9380 75° East 542 624 35,000  Level FlightAware ADS-B
Sat 01:57:17 PM 47.7000 -51.8150 74° East 542 624 35,000  Level FlightAware ADS-B
Sat 01:57:57 PM 47.7220 -51.6930 75° East 542 624 35,000  Level FlightAware ADS-B
Sat 01:58:37 PM 47.7440 -51.5700 75° East 542 624 35,000  Level FlightAware ADS-B
Sat 01:59:17 PM 47.7660 -51.4480 75° East 542 624 35,000  Level FlightAware ADS-B
Sat 02:00:07 PM 47.7930 -51.2950 75° East 542 624 35,000  Level FlightAware ADS-B
Sat 02:00:47 PM 47.8150 -51.1720 75° East 542 624 35,000  Level FlightAware ADS-B
Sat 02:01:27 PM 47.8370 -51.0500 75° East 542 624 35,000  Level FlightAware ADS-B
Sat 02:02:07 PM 47.8590 -50.9270 75° East 542 624 35,000  Level FlightAware ADS-B
Sat 02:02:47 PM 47.8810 -50.8040 75° East 542 624 35,000  Level FlightAware ADS-B
Sat 02:03:37 PM 47.9090 -50.6500 75° East 542 624 35,000  Level FlightAware ADS-B
Sat 02:04:17 PM 47.9310 -50.5280 75° East 542 624 35,000  Level FlightAware ADS-B
Sat 02:04:57 PM 47.9530 -50.4050 75° East 542 624 35,000  Level FlightAware ADS-B
Sat 02:06:17 PM 48.3667 -48.7667 75° East 570 656 35,000  Level Gander Center
Sat 02:06:36 PM 48.4000 -48.7167 45° Northeast 570 656 35,000  Level Gander Center
Sat 02:07:17 PM 48.4500 -48.5500 66° East 570 656 35,000  Level Gander Center
Sat 02:08:17 PM 48.5333 -48.3500 58° Northeast 570 656 35,000  Level Gander Center
Sat 02:08:36 PM 48.5500 -48.2833 69° East 570 656 35,000  Level Gander Center
Sat 02:09:17 PM 48.6000 -48.1167 66° East 570 656 35,000  Level Gander Center
Sat 02:10:17 PM 48.6833 -47.9167 58° Northeast 570 656 35,000  Level Gander Center
Sat 02:10:36 PM 48.6833 -47.8500 90° East 570 656 35,000  Level Gander Center
Sat 02:11:36 PM 48.7667 -47.6500 58° Northeast 570 656 35,000  Level Gander Center
Sat 02:12:36 PM 48.8333 -47.4167 66° East 570 656 35,000  Level Gander Center
Sat 02:13:36 PM 48.9167 -47.2167 58° Northeast 570 656 35,000  Level Gander Center
Sat 02:14:36 PM 48.9667 -47.0000 71° East 570 656 35,000  Level Gander Center
Sat 02:15:36 PM 49.0500 -46.7833 60° Northeast 570 656 35,000 13 Level Gander Center
Sat 02:17:00 PM 49.1380 -46.5146 63° Northeast  Level FlightAware Approximate
Sat 02:24:00 PM 49.5687 -45.1568 64° Northeast  Level FlightAware Approximate
Sat 02:25:00 PM 49.6289 -44.9609 65° Northeast  Level FlightAware Approximate
Sat 02:26:00 PM 49.6888 -44.7645 65° Northeast  Level FlightAware Approximate
Sat 02:27:00 PM 49.7484 -44.5677 65° Northeast  Level FlightAware Approximate
Sat 02:28:00 PM 49.8076 -44.3703 65° Northeast  Level FlightAware Approximate
Sat 02:29:00 PM 49.8665 -44.1725 65° Northeast  Level FlightAware Approximate
Sat 02:30:00 PM 49.9250 -43.9742 65° Northeast  Level FlightAware Approximate
Sat 02:31:00 PM 49.9832 -43.7754 65° Northeast  Level FlightAware Approximate
Sat 02:32:00 PM 50.0411 -43.5761 66° East  Level FlightAware Approximate
Sat 02:33:00 PM 50.0986 -43.3763 66° East  Level FlightAware Approximate
Sat 02:34:00 PM 50.1558 -43.1761 66° East  Level FlightAware Approximate
Sat 02:35:00 PM 50.2127 -42.9754 66° East  Level FlightAware Approximate
Sat 02:36:00 PM 50.2691 -42.7742 66° East  Level FlightAware Approximate
Sat 02:37:00 PM 50.3253 -42.5725 66° East  Level FlightAware Approximate
Sat 02:38:00 PM 50.3811 -42.3703 67° East  Level FlightAware Approximate
Sat 02:39:00 PM 50.4365 -42.1677 67° East  Level FlightAware Approximate
Sat 02:40:00 PM 50.4916 -41.9646 67° East  Level FlightAware Approximate
Sat 02:41:00 PM 50.5463 -41.7611 67° East  Level FlightAware Approximate
Sat 02:42:00 PM 50.6007 -41.5570 67° East  Level FlightAware Approximate
Sat 02:43:00 PM 50.6547 -41.3525 67° East  Level FlightAware Approximate
Sat 02:44:00 PM 50.7084 -41.1475 67° East  Level FlightAware Approximate
Sat 02:45:00 PM 50.7617 -40.9421 68° East  Level FlightAware Approximate
Sat 02:46:00 PM 50.8146 -40.7362 68° East  Level FlightAware Approximate
Sat 02:47:00 PM 50.8672 -40.5298 68° East  Level FlightAware Approximate
Sat 02:48:00 PM 50.9194 -40.3229 68° East  Level FlightAware Approximate
Sat 02:49:00 PM 50.9713 -40.1156 68° East  Level FlightAware Approximate
Sat 02:50:00 PM 51.0138 -39.9033 77° East  Level FlightAware Approximate
Sat 02:51:00 PM 51.0446 -39.6853 77° East  Level FlightAware Approximate
Sat 02:52:00 PM 51.0750 -39.4670 77° East  Level FlightAware Approximate
Sat 02:53:00 PM 51.1050 -39.2484 78° East  Level FlightAware Approximate
Sat 02:54:00 PM 51.1346 -39.0295 78° East  Level FlightAware Approximate
Sat 02:55:00 PM 51.1638 -38.8104 78° East  Level FlightAware Approximate
Sat 02:56:00 PM 51.1926 -38.5910 78° East  Level FlightAware Approximate
Sat 02:57:00 PM 51.2210 -38.3713 78° East  Level FlightAware Approximate
Sat 02:58:00 PM 51.2489 -38.1513 78° East  Level FlightAware Approximate
Sat 02:59:00 PM 51.2765 -37.9311 79° East  Level FlightAware Approximate
Sat 03:00:00 PM 51.3036 -37.7106 79° East  Level FlightAware Approximate
Sat 03:01:00 PM 51.3303 -37.4899 79° East  Level FlightAware Approximate
Sat 03:02:00 PM 51.3566 -37.2689 79° East  Level FlightAware Approximate
Sat 03:03:00 PM 51.3825 -37.0476 79° East  Level FlightAware Approximate
Sat 03:04:00 PM 51.4080 -36.8261 79° East  Level FlightAware Approximate
Sat 03:05:00 PM 51.4330 -36.6044 80° East  Level FlightAware Approximate
Sat 03:06:00 PM 51.4576 -36.3824 80° East  Level FlightAware Approximate
Sat 03:07:00 PM 51.4820 -36.1602 80° East  Level FlightAware Approximate
Sat 03:08:00 PM 51.5061 -35.9379 80° East  Level FlightAware Approximate
Sat 03:09:00 PM 51.5298 -35.7153 80° East  Level FlightAware Approximate
Sat 03:10:00 PM 51.5531 -35.4924 80° East  Level FlightAware Approximate
Sat 03:11:00 PM 51.5759 -35.2694 81° East  Level FlightAware Approximate
Sat 03:12:00 PM 51.5983 -35.0461 81° East  Level FlightAware Approximate
Sat 03:13:00 PM 51.6203 -34.8226 81° East  Level FlightAware Approximate
Sat 03:14:00 PM 51.6418 -34.5989 81° East  Level FlightAware Approximate
Sat 03:15:00 PM 51.6630 -34.3749 81° East  Level FlightAware Approximate
Sat 03:16:00 PM 51.6837 -34.1508 81° East  Level FlightAware Approximate
Sat 03:17:00 PM 51.7040 -33.9264 82° East  Level FlightAware Approximate
Sat 03:18:00 PM 51.7241 -33.7020 82° East  Level FlightAware Approximate
Sat 03:19:00 PM 51.7442 -33.4774 82° East  Level FlightAware Approximate
Sat 03:20:00 PM 51.7640 -33.2526 82° East  Level FlightAware Approximate
Sat 03:21:00 PM 51.7833 -33.0277 82° East  Level FlightAware Approximate
Sat 03:22:00 PM 51.8021 -32.8025 82° East  Level FlightAware Approximate
Sat 03:23:00 PM 51.8206 -32.5772 82° East  Level FlightAware Approximate
Sat 03:24:00 PM 51.8386 -32.3517 83° East  Level FlightAware Approximate
Sat 03:25:00 PM 51.8562 -32.1260 83° East  Level FlightAware Approximate
Sat 03:26:00 PM 51.8733 -31.9001 83° East  Level FlightAware Approximate
Sat 03:27:00 PM 51.8900 -31.6740 83° East  Level FlightAware Approximate
Sat 03:28:00 PM 51.9063 -31.4478 83° East  Level FlightAware Approximate
Sat 03:29:00 PM 51.9222 -31.2215 83° East  Level FlightAware Approximate
Sat 03:30:00 PM 51.9376 -30.9949 84° East  Level FlightAware Approximate
Sat 03:31:00 PM 51.9525 -30.7683 84° East  Level FlightAware Approximate
Sat 03:32:00 PM 51.9671 -30.5414 84° East  Level FlightAware Approximate
Sat 03:33:00 PM 51.9812 -30.3144 84° East  Level FlightAware Approximate
Sat 03:34:00 PM 51.9949 -30.0873 84° East  Level FlightAware Approximate
Sat 03:35:00 PM 52.0059 -29.8598 86° East  Level FlightAware Approximate
Sat 03:36:00 PM 52.0150 -29.6320 86° East  Level FlightAware Approximate
Sat 03:37:00 PM 52.0238 -29.4041 86° East  Level FlightAware Approximate
Sat 03:38:00 PM 52.0321 -29.1761 87° East  Level FlightAware Approximate
Sat 03:39:00 PM 52.0400 -28.9480 87° East  Level FlightAware Approximate
Sat 03:40:00 PM 52.0474 -28.7198 87° East  Level FlightAware Approximate
Sat 03:41:00 PM 52.0543 -28.4916 87° East  Level FlightAware Approximate
Sat 03:42:00 PM 52.0609 -28.2633 87° East  Level FlightAware Approximate
Sat 03:43:00 PM 52.0670 -28.0349 87° East  Level FlightAware Approximate
Sat 03:44:00 PM 52.0726 -27.8065 88° East  Level FlightAware Approximate
Sat 03:45:00 PM 52.0778 -27.5780 88° East  Level FlightAware Approximate
Sat 03:46:00 PM 52.0826 -27.3494 88° East  Level FlightAware Approximate
Sat 03:47:00 PM 52.0869 -27.1208 88° East  Level FlightAware Approximate
Sat 03:48:00 PM 52.0908 -26.8922 88° East  Level FlightAware Approximate
Sat 03:49:00 PM 52.0942 -26.6636 89° East  Level FlightAware Approximate
Sat 03:50:00 PM 52.0972 -26.4349 89° East  Level FlightAware Approximate
Sat 03:51:00 PM 52.0998 -26.2061 89° East  Level FlightAware Approximate
Sat 03:52:00 PM 52.1019 -25.9774 89° East  Level FlightAware Approximate
Sat 03:53:00 PM 52.1036 -25.7486 89° East  Level FlightAware Approximate
Sat 03:54:00 PM 52.1048 -25.5198 89° East  Level FlightAware Approximate
Sat 03:55:00 PM 52.1056 -25.2910 90° East  Level FlightAware Approximate
Sat 03:56:00 PM 52.1059 -25.0622 90° East  Level FlightAware Approximate
Sat 03:57:00 PM 52.1058 -24.8334 90° East  Level FlightAware Approximate
Sat 03:58:00 PM 52.1053 -24.6046 90° East  Level FlightAware Approximate
Sat 03:59:00 PM 52.1043 -24.3759 90° East  Level FlightAware Approximate
Sat 04:00:00 PM 52.1029 -24.1471 90° East  Level FlightAware Approximate
Sat 04:01:00 PM 52.1010 -23.9183 91° East  Level FlightAware Approximate
Sat 04:02:00 PM 52.0987 -23.6896 91° East  Level FlightAware Approximate
Sat 04:03:00 PM 52.0959 -23.4609 91° East  Level FlightAware Approximate
Sat 04:04:00 PM 52.0927 -23.2322 91° East  Level FlightAware Approximate
Sat 04:05:00 PM 52.0891 -23.0035 91° East  Level FlightAware Approximate
Sat 04:06:00 PM 52.0850 -22.7749 92° East  Level FlightAware Approximate
Sat 04:07:00 PM 52.0804 -22.5464 92° East  Level FlightAware Approximate
Sat 04:08:00 PM 52.0755 -22.3179 92° East  Level FlightAware Approximate
Sat 04:09:00 PM 52.0701 -22.0894 92° East  Level FlightAware Approximate
Sat 04:10:00 PM 52.0642 -21.8610 92° East  Level FlightAware Approximate
Sat 04:11:00 PM 52.0579 -21.6327 92° East  Level FlightAware Approximate
Sat 04:12:00 PM 52.0512 -21.4044 93° East  Level FlightAware Approximate
Sat 04:13:00 PM 52.0440 -21.1762 93° East  Level FlightAware Approximate
Sat 04:14:00 PM 52.0364 -20.9480 93° East  Level FlightAware Approximate
Sat 04:15:00 PM 52.0283 -20.7200 93° East  Level FlightAware Approximate
Sat 04:16:00 PM 52.0199 -20.4920 93° East  Level FlightAware Approximate
Sat 04:17:00 PM 52.0109 -20.2642 94° East  Level FlightAware Approximate
Sat 04:18:00 PM 52.0015 -20.0364 94° East  Level FlightAware Approximate
Sat 04:19:00 PM 51.9785 -19.8115 100° East  Level FlightAware Approximate
Sat 04:20:00 PM 51.9524 -19.5873 101° East  Level FlightAware Approximate
Sat 04:21:00 PM 51.9259 -19.3635 101° East  Level FlightAware Approximate
Sat 04:22:00 PM 51.8991 -19.1399 101° East  Level FlightAware Approximate
Sat 04:23:00 PM 51.8718 -18.9165 101° East  Level FlightAware Approximate
Sat 04:24:00 PM 51.8440 -18.6935 101° East  Level FlightAware Approximate
Sat 04:25:00 PM 51.8159 -18.4707 101° East  Level FlightAware Approximate
Sat 04:26:00 PM 51.7873 -18.2481 102° East  Level FlightAware Approximate
Sat 04:27:00 PM 51.7583 -18.0259 102° East  Level FlightAware Approximate
Sat 04:28:00 PM 51.7289 -17.8040 102° East  Level FlightAware Approximate
Sat 04:29:00 PM 51.6991 -17.5823 102° East  Level FlightAware Approximate
Sat 04:30:00 PM 51.6695 -17.3608 102° East  Level FlightAware Approximate
Sat 04:31:00 PM 51.6401 -17.1392 102° East  Level FlightAware Approximate
Sat 04:32:00 PM 51.6104 -16.9180 102° East  Level FlightAware Approximate
Sat 04:33:00 PM 51.5802 -16.6971 102° East  Level FlightAware Approximate
Sat 04:34:00 PM 51.5497 -16.4764 102° East  Level FlightAware Approximate
Sat 04:35:00 PM 51.5187 -16.2560 103° East  Level FlightAware Approximate
Sat 04:36:00 PM 51.4873 -16.0360 103° East  Level FlightAware Approximate
Sat 04:37:00 PM 51.4555 -15.8162 103° East  Level FlightAware Approximate
Sat 04:38:00 PM 51.4233 -15.5968 103° East  Level FlightAware Approximate
Sat 04:39:00 PM 51.3906 -15.3777 103° East  Level FlightAware Approximate
Sat 04:40:00 PM 51.3576 -15.1588 104° East  Level FlightAware Approximate
Sat 04:41:00 PM 51.3239 -14.9404 104° East  Level FlightAware Approximate
Sat 04:42:00 PM 51.2892 -14.7226 104° East  Level FlightAware Approximate
Sat 04:43:00 PM 51.2540 -14.5052 104° East  Level FlightAware Approximate
Sat 04:44:00 PM 51.2184 -14.2880 105° East  Level FlightAware Approximate
Sat 04:45:00 PM 51.1825 -14.0712 105° East  Level FlightAware Approximate
Sat 04:46:00 PM 51.1461 -13.8547 105° East  Level FlightAware Approximate
Sat 04:47:00 PM 51.1093 -13.6386 105° East  Level FlightAware Approximate
Sat 04:48:00 PM 51.0722 -13.4228 105° East  Level FlightAware Approximate
Sat 04:49:00 PM 51.0346 -13.2074 105° East  Level FlightAware Approximate
Sat 04:50:00 PM 50.9964 -12.9924 106° East  Level FlightAware Approximate
Sat 04:51:00 PM 50.9579 -12.7778 106° East  Level FlightAware Approximate
Sat 04:52:00 PM 50.9189 -12.5635 106° East  Level FlightAware Approximate
Sat 04:52:07 PM 50.6370 -11.1360 106° East 463 533 37,000  Level FlightAware ADS-B
Sat 04:52:47 PM 50.6230 -11.0050 100° East 464 534 37,000  Level FlightAware ADS-B
Sat 04:53:27 PM 50.6080 -10.8700 100° East 464 534 37,000  Level FlightAware ADS-B
Sat 04:54:12 PM 50.5910 -10.7230 100° East 464 534 37,000  Level FlightAware ADS-B
Sat 04:54:52 PM 50.5750 -10.5890 101° East 463 533 37,000  Level FlightAware ADS-B
Sat 04:55:37 PM 50.5610 -10.4580 100° East 463 533 37,000  Level FlightAware ADS-B
Sat 04:56:17 PM 50.5480 -10.3450 100° East 463 533 37,000  Level FlightAware ADS-B
Sat 04:57:12 PM 50.5230 -10.1370 101° East 465 535 37,000  Level FlightAware ADS-B
Sat 04:57:47 PM 50.5070 -10.0120 101° East 465 535 37,000  Level FlightAware ADS-B
Sat 04:58:37 PM 50.4870 -9.8500 101° East 463 533 37,000  Level FlightAware ADS-B
Sat 04:59:17 PM 50.4720 -9.7270 101° East 462 532 37,000  Level FlightAware ADS-B
Sat 05:00:02 PM 50.4520 -9.5690 101° East 461 531 37,000  Level FlightAware ADS-B
Sat 05:00:42 PM 50.4360 -9.4380 101° East 462 532 37,000  Level FlightAware ADS-B
Sat 05:01:27 PM 50.4160 -9.2860 102° East 463 533 37,000  Level FlightAware ADS-B
Sat 05:02:07 PM 50.4020 -9.1790 102° East 463 533 37,000  Level FlightAware ADS-B
Sat 05:02:52 PM 50.3810 -9.0190 102° East 462 532 37,000 -1,548 Level FlightAware ADS-B
Sat 05:03:09 PM 50.3712 -8.9444 102° East 494 568 35,400 -2,743 Descending FlightAware UK
Sat 05:03:27 PM 50.3635 -8.8856 102° East 496 571 35,400 4,174 Level FlightAware UK
Sat 05:03:32 PM 50.3640 -8.8830 102° East 462 532 37,000  Climbing FlightAware ADS-B
Sat 05:03:51 PM 50.3533 -8.8070 102° East 494 568 35,400 -2,595 Descending FlightAware UK
Sat 05:04:09 PM 50.3456 -8.7481 102° East 496 571 35,400 4,571 Level FlightAware UK
Sat 05:04:12 PM 50.3470 -8.7580 102° East 463 533 37,000 333 Climbing FlightAware ADS-B
Sat 05:04:27 PM 50.3378 -8.6892 102° East 496 571 35,500 -2,909 Descending FlightAware UK
Sat 05:04:45 PM 50.3300 -8.6303 102° East 494 568 35,400 3,000 Descending FlightAware UK
Sat 05:04:57 PM 50.3260 -8.5990 102° East 465 535 37,000 200 Climbing FlightAware ADS-B
Sat 05:05:15 PM 50.3168 -8.5320 102° East 496 571 35,500 -2,500 Descending FlightAware UK
Sat 05:05:33 PM 50.3086 -8.4731 102° East 496 571 35,500 4,091 Level FlightAware UK
Sat 05:05:37 PM 50.3080 -8.4670 102° East 465 535 37,000  Climbing FlightAware ADS-B
Sat 05:05:57 PM 50.2978 -8.3946 102° East 496 571 35,500 -2,368 Descending FlightAware UK
Sat 05:06:15 PM 50.2899 -8.3356 102° East 496 571 35,500 4,500 Level FlightAware UK
Sat 05:06:17 PM 50.2910 -8.3350 102° East 464 534 37,000  Climbing FlightAware ADS-B
Sat 05:06:33 PM 50.2825 -8.2765 102° East 498 573 35,500 -2,647 Descending FlightAware UK
Sat 05:06:51 PM 50.2752 -8.2173 101° East 498 573 35,500 3,103 Level FlightAware UK
Sat 05:07:02 PM 50.2730 -8.1940 101° East 464 534 37,000  Climbing FlightAware ADS-B
Sat 05:07:21 PM 50.2629 -8.1188 101° East 498 573 35,500 -2,432 Descending FlightAware UK
Sat 05:07:39 PM 50.2553 -8.0590 101° East 496 571 35,500 4,286 Level FlightAware UK
Sat 05:07:42 PM 50.2560 -8.0590 101° East 464 534 37,000  Climbing FlightAware ADS-B
Sat 05:07:57 PM 50.2478 -7.9999 101° East 496 571 35,500 -2,727 Descending FlightAware UK
Sat 05:08:15 PM 50.2401 -7.9408 101° East 494 568 35,500 3,000 Level FlightAware UK
Sat 05:08:27 PM 50.2360 -7.9080 101° East 466 536 37,000  Climbing FlightAware ADS-B
Sat 05:08:45 PM 50.2272 -7.8423 101° East 494 568 35,500 -2,500 Descending FlightAware UK
Sat 05:09:03 PM 50.2194 -7.7831 102° East 494 568 35,500 4,091 Level FlightAware UK
Sat 05:09:07 PM 50.2180 -7.7760 102° East 467 537 37,000  Climbing FlightAware ADS-B
Sat 05:09:27 PM 50.2090 -7.7040 102° East 496 571 35,500 -2,368 Descending FlightAware UK
Sat 05:09:45 PM 50.2010 -7.6446 102° East 498 573 35,500 4,500 Level FlightAware UK
Sat 05:09:47 PM 50.2010 -7.6480 102° East 469 540 37,000  Climbing FlightAware ADS-B
Sat 05:10:03 PM 50.1930 -7.5851 102° East 498 573 35,500 -2,647 Descending FlightAware UK
Sat 05:10:21 PM 50.1849 -7.5257 102° East 498 573 35,500 3,103 Level FlightAware UK
Sat 05:10:32 PM 50.1810 -7.4960 102° East 469 540 37,000  Climbing FlightAware ADS-B
Sat 05:10:51 PM 50.1715 -7.4264 102° East 498 573 35,500 -2,432 Descending FlightAware UK
Sat 05:11:09 PM 50.1634 -7.3669 102° East 498 573 35,500 4,286 Level FlightAware UK
Sat 05:11:12 PM 50.1630 -7.3630 102° East 470 541 37,000 -333 Climbing FlightAware ADS-B
Sat 05:11:27 PM 50.1553 -7.3074 102° East 496 571 35,400 -2,727 Descending FlightAware UK
Sat 05:11:45 PM 50.1472 -7.2479 102° East 496 571 35,500 3,200 Climbing FlightAware UK
Sat 05:11:57 PM 50.1430 -7.2160 102° East 470 541 37,000  Climbing FlightAware ADS-B
Sat 05:12:15 PM 50.1337 -7.1488 102° East 496 571 35,500 -2,500 Descending FlightAware UK
Sat 05:12:33 PM 50.1255 -7.0893 102° East 498 573 35,500 4,091 Level FlightAware UK
Sat 05:12:37 PM 50.1250 -7.0840 102° East 471 542 37,000  Climbing FlightAware ADS-B
Sat 05:12:57 PM 50.1143 -7.0098 102° East 498 573 35,500 -2,308 Descending FlightAware UK
Sat 05:13:16 PM 50.1058 -6.9495 102° East 498 573 35,500 4,500 Level FlightAware UK
Sat 05:13:17 PM 50.1060 -6.9520 102° East 472 543 37,000  Climbing FlightAware ADS-B
Sat 05:13:34 PM 50.0975 -6.8898 102° East 500 575 35,500 -2,571 Descending FlightAware UK
Sat 05:13:52 PM 50.0891 -6.8300 102° East 498 573 35,500 3,214 Level FlightAware UK
Sat 05:14:02 PM 50.0850 -6.8040 102° East 473 544 37,000  Climbing FlightAware ADS-B
Sat 05:14:22 PM 50.0750 -6.7304 102° East 498 573 35,500 -2,368 Descending FlightAware UK
Sat 05:14:40 PM 50.0666 -6.6707 102° East 498 573 35,500 4,500 Level FlightAware UK
Sat 05:14:42 PM 50.0670 -6.6710 102° East 473 544 37,000  Climbing FlightAware ADS-B
Sat 05:14:58 PM 50.0580 -6.6109 102° East 498 573 35,500 -2,647 Descending FlightAware UK
Sat 05:15:16 PM 50.0494 -6.5511 103° East 498 573 35,500 3,750 Level FlightAware UK
Sat 05:15:22 PM 50.0470 -6.5370 103° East 474 545 37,000  Climbing FlightAware ADS-B
Sat 05:15:40 PM 50.0378 -6.4714 103° East 502 578 35,500 -2,500 Descending FlightAware UK
Sat 05:15:58 PM 50.0292 -6.4117 103° East 502 578 35,500 3,333 Level FlightAware UK
Sat 05:16:07 PM 50.0260 -6.3880 103° East 473 544 37,000  Climbing FlightAware ADS-B
Sat 05:16:22 PM 50.0177 -6.3322 103° East 502 578 35,500 -2,727 Descending FlightAware UK
Sat 05:16:40 PM 50.0090 -6.2727 103° East 502 578 35,500 3,600 Level FlightAware UK
Sat 05:16:47 PM 50.0060 -6.2560 103° East 471 542 37,000  Climbing FlightAware ADS-B
Sat 05:17:04 PM 49.9975 -6.1935 103° East 502 578 35,500 -2,571 Descending FlightAware UK
Sat 05:17:22 PM 49.9890 -6.1342 103° East 500 575 35,500 3,214 Level FlightAware UK
Sat 05:17:32 PM 49.9840 -6.1050 103° East 469 540 37,000  Climbing FlightAware ADS-B
Sat 05:17:52 PM 49.9743 -6.0359 103° East 498 573 35,500 -2,368 Descending FlightAware UK
Sat 05:18:10 PM 49.9654 -5.9763 103° East 498 573 35,500 4,500 Level FlightAware UK
Sat 05:18:12 PM 49.9650 -5.9730 103° East 470 541 37,000  Climbing FlightAware ADS-B
Sat 05:18:28 PM 49.9566 -5.9174 103° East 500 575 35,500 -2,647 Descending FlightAware UK
Sat 05:18:46 PM 49.9477 -5.8585 103° East 500 575 35,500 3,103 Level FlightAware UK
Sat 05:18:57 PM 49.9430 -5.8280 103° East 470 541 37,000  Climbing FlightAware ADS-B
Sat 05:19:16 PM 49.9328 -5.7602 103° East 500 575 35,500 -2,432 Descending FlightAware UK
Sat 05:19:34 PM 49.9239 -5.7014 103° East 502 578 35,500 4,286 Level FlightAware UK
Sat 05:19:37 PM 49.9230 -5.6980 103° East 468 539 37,000  Climbing FlightAware ADS-B
Sat 05:19:52 PM 49.9150 -5.6426 103° East 500 575 35,500 -2,727 Descending FlightAware UK
Sat 05:20:10 PM 49.9061 -5.5839 103° East 498 573 35,500 3,000 Level FlightAware UK
Sat 05:20:22 PM 49.9010 -5.5530 103° East 468 539 37,000  Climbing FlightAware ADS-B
Sat 05:20:40 PM 49.8911 -5.4862 103° East 498 573 35,500 -2,500 Descending FlightAware UK
Sat 05:20:58 PM 49.8819 -5.4270 103° East 498 573 35,500 4,091 Level FlightAware UK
Sat 05:21:02 PM 49.8810 -5.4220 103° East 468 539 37,000  Climbing FlightAware ADS-B
Sat 05:21:22 PM 49.8699 -5.3496 103° East 498 573 35,500 -2,368 Descending FlightAware UK
Sat 05:21:40 PM 49.8606 -5.2903 104° East 498 573 35,500 4,500 Level FlightAware UK
Sat 05:21:42 PM 49.8610 -5.2920 104° East 468 539 37,000  Climbing FlightAware ADS-B
Sat 05:21:58 PM 49.8515 -5.2317 104° East 498 573 35,500 -2,647 Descending FlightAware UK
Sat 05:22:16 PM 49.8425 -5.1737 103° East 496 571 35,500 3,103 Level FlightAware UK
Sat 05:22:27 PM 49.8380 -5.1460 103° East 469 540 37,000  Climbing FlightAware ADS-B
Sat 05:22:46 PM 49.8270 -5.0754 103° East 496 571 35,500 -2,432 Descending FlightAware UK
Sat 05:23:04 PM 49.8176 -5.0167 104° East 496 571 35,500 4,286 Level FlightAware UK
Sat 05:23:07 PM 49.8170 -5.0140 104° East 471 542 37,000  Climbing FlightAware ADS-B
Sat 05:23:22 PM 49.8082 -4.9579 104° East 498 573 35,500 -2,727 Descending FlightAware UK
Sat 05:23:40 PM 49.7987 -4.8991 104° East 496 571 35,500 3,000 Level FlightAware UK
Sat 05:23:52 PM 49.7930 -4.8630 104° East 471 542 37,000  Climbing FlightAware ADS-B
Sat 05:24:10 PM 49.7829 -4.8011 104° East 498 573 35,500 -2,500 Descending FlightAware UK
Sat 05:24:28 PM 49.7735 -4.7421 104° East 498 573 35,500 4,091 Level FlightAware UK
Sat 05:24:32 PM 49.7720 -4.7320 104° East 472 543 37,000  Climbing FlightAware ADS-B
Sat 05:24:52 PM 49.7609 -4.6635 104° East 500 575 35,500 -2,368 Descending FlightAware UK
Sat 05:25:10 PM 49.7514 -4.6047 104° East 502 578 35,500 4,500 Level FlightAware UK
Sat 05:25:12 PM 49.7520 -4.6070 104° East 472 543 37,000  Climbing FlightAware ADS-B
Sat 05:25:28 PM 49.7416 -4.5452 104° East 502 578 35,500 -2,647 Descending FlightAware UK
Sat 05:25:46 PM 49.7320 -4.4865 104° East 502 578 35,500 3,103 Level FlightAware UK
Sat 05:25:57 PM 49.7270 -4.4570 104° East 471 542 37,000  Climbing FlightAware ADS-B
Sat 05:26:16 PM 49.7161 -4.3895 104° East 502 578 35,500 -2,432 Descending FlightAware UK
Sat 05:26:34 PM 49.7064 -4.3304 104° East 502 578 35,500 4,286 Level FlightAware UK
Sat 05:26:37 PM 49.7060 -4.3290 104° East 469 540 37,000  Climbing FlightAware ADS-B
Sat 05:26:52 PM 49.6967 -4.2721 104° East 500 575 35,500 -2,727 Descending FlightAware UK
Sat 05:27:10 PM 49.6871 -4.2139 104° East 502 578 35,500 3,600 Level FlightAware UK
Sat 05:27:17 PM 49.6860 -4.2050 104° East 468 539 37,000  Climbing FlightAware ADS-B
Sat 05:27:34 PM 49.6781 -4.1353 104° East 502 578 35,500 -2,571 Descending FlightAware UK
Sat 05:27:52 PM 49.6725 -4.0759 98° East 504 580 35,500 3,214 Level FlightAware UK
Sat 05:28:02 PM 49.6710 -4.0510 98° East 467 537 37,000  Climbing FlightAware ADS-B
Sat 05:28:22 PM 49.6650 -3.9762 98° East 502 578 35,500 -2,368 Descending FlightAware UK
Sat 05:28:40 PM 49.6609 -3.9167 96° East 500 575 35,500 4,500 Level FlightAware UK
Sat 05:28:42 PM 49.6620 -3.9220 96° East 464 534 37,000  Climbing FlightAware ADS-B
Sat 05:28:58 PM 49.6572 -3.8576 96° East 500 575 35,500 -2,647 Descending FlightAware UK
Sat 05:29:16 PM 49.6535 -3.7986 95° East 500 575 35,500 3,103 Level FlightAware UK
Sat 05:29:27 PM 49.6520 -3.7680 95° East 462 532 37,000  Climbing FlightAware ADS-B
Sat 05:29:47 PM 49.6471 -3.7001 95° East 498 573 35,500 -2,368 Descending FlightAware UK
Sat 05:30:05 PM 49.6435 -3.6413 96° East 500 575 35,500 4,500 Level FlightAware UK
Sat 05:30:07 PM 49.6430 -3.6370 96° East 460 529 37,000  Climbing FlightAware ADS-B
Sat 05:30:23 PM 49.6395 -3.5827 96° East 498 573 35,500 -2,647 Descending FlightAware UK
Sat 05:30:41 PM 49.6355 -3.5242 96° East 496 571 35,500 3,103 Level FlightAware UK
Sat 05:30:52 PM 49.6340 -3.4980 96° East 459 528 37,000  Climbing FlightAware ADS-B
Sat 05:31:11 PM 49.6288 -3.4268 96° East 496 571 35,500 -2,432 Descending FlightAware UK
Sat 05:31:29 PM 49.6247 -3.3685 96° East 496 571 35,500 4,286 Level FlightAware UK
Sat 05:31:32 PM 49.6250 -3.3660 96° East 458 527 37,000  Climbing FlightAware ADS-B
Sat 05:31:47 PM 49.6206 -3.3096 96° East 496 571 35,500 -2,909 Descending FlightAware UK
Sat 05:32:05 PM 49.6165 -3.2513 96° East 494 568 35,400 3,600 Descending FlightAware UK
Sat 05:32:12 PM 49.6150 -3.2350 96° East 458 527 37,000 250 Climbing FlightAware ADS-B
Sat 05:32:29 PM 49.6110 -3.1729 96° East 494 568 35,500 -2,571 Descending FlightAware UK
Sat 05:32:47 PM 49.6070 -3.1158 96° East 496 571 35,500 3,214 Level FlightAware UK
Sat 05:32:57 PM 49.6050 -3.0870 96° East 460 529 37,000  Climbing FlightAware ADS-B
Sat 05:33:17 PM 49.5996 -3.0171 96° East 496 571 35,500 -2,368 Descending FlightAware UK
Sat 05:33:35 PM 49.5951 -2.9586 97° East 498 573 35,500 4,500 Level FlightAware UK
Sat 05:33:37 PM 49.5950 -2.9540 97° East 460 529 37,000  Climbing FlightAware ADS-B
Sat 05:33:53 PM 49.5909 -2.9000 97° East 500 575 35,500 -2,647 Descending FlightAware UK
Sat 05:34:11 PM 49.5867 -2.8413 96° East 502 578 35,500 3,103 Level FlightAware UK
Sat 05:34:22 PM 49.5850 -2.8110 96° East 459 528 37,000 7,500 Climbing FlightAware ADS-B
Sat 05:34:23 PM 49.5840 -2.8031 101° East 461 531 37,000 -4,737 Level FlightAware ADS-B
Sat 05:34:41 PM 49.5795 -2.7437 101° East 500 575 35,500  Descending FlightAware UK
Sat 05:34:54 PM 49.5764 -2.7006 101° East 459 528 37,000 -200 Climbing FlightAware ADS-B
Sat 05:35:11 PM 49.5721 -2.6462 101° East 498 573 35,400 -3,257 Descending FlightAware UK
Sat 05:35:29 PM 49.5678 -2.5880 97° East 496 571 35,100 1,636 Descending FlightAware UK
Sat 05:35:44 PM 49.5640 -2.5400 97° East 458 527 36,300 -1,200 Climbing FlightAware ADS-B
Sat 05:35:59 PM 49.5600 -2.4907 97° East 500 575 34,500 -3,455 Descending FlightAware UK
Sat 05:36:17 PM 49.5554 -2.4328 97° East 500 575 34,400 3,214 Descending FlightAware UK
Sat 05:36:27 PM 49.5540 -2.4120 97° East 458 527 36,000  Climbing FlightAware ADS-B
Sat 05:36:47 PM 49.5477 -2.3356 97° East 496 571 34,400  Descending FlightAware UK
Sat 05:37:03 PM 49.5444 -2.2869 97° East 457 526 36,000 167 Climbing FlightAware ADS-B
Sat 05:37:23 PM 49.5387 -2.2199 97° East 496 571 34,500  Descending FlightAware UK
Sat 05:37:32 PM 49.5369 -2.1922 97° East 457 526 36,000 9,000 Climbing FlightAware ADS-B
Sat 05:37:33 PM 49.5366 -2.1893 99° East 457 526 36,000 -4,091 Level FlightAware ADS-B
Sat 05:37:54 PM 49.5309 -2.1228 99° East 500 575 34,500 -188 Descending FlightAware UK
Sat 05:38:05 PM 49.5283 -2.0864 99° East 456 525 35,900 7,000 Climbing FlightAware ADS-B
Sat 05:38:06 PM 49.5280 -2.0828 97° East 456 525 35,900 -6,000 Level FlightAware ADS-B
Sat 05:38:23 PM 49.5233 -2.0277 97° East 492 566 34,100 -1,000 Descending FlightAware UK
Sat 05:38:36 PM 49.5203 -1.9882 97° East 456 525 35,400 4,875 Climbing FlightAware ADS-B
Sat 05:38:39 PM 49.5195 -1.9785 97° East 455 524 35,400 -5,000 Level FlightAware ADS-B
Sat 05:39:00 PM 49.5136 -1.9110 97° East 496 571 33,400 -857 Descending FlightAware UK
Sat 05:39:07 PM 49.5121 -1.8882 97° East 458 527 35,000 10,667 Climbing FlightAware ADS-B
Sat 05:39:09 PM 49.5116 -1.8818 97° East 458 527 35,000 -5,647 Level FlightAware ADS-B
Sat 05:39:24 PM 49.5073 -1.8339 97° East 498 573 33,400 -2,909 Descending FlightAware UK
Sat 05:39:42 PM 49.5024 -1.7759 97° East 498 573 33,400 5,333 Level FlightAware UK
Sat 05:39:42 PM 49.5026 -1.7738 97° East 458 527 35,000 16,000 Climbing FlightAware ADS-B
Sat 05:39:48 PM 49.5011 -1.7564 98° East 458 527 35,000 -4,000 Level FlightAware ADS-B
Sat 05:40:06 PM 49.4959 -1.6987 98° East 498 573 33,400  Descending FlightAware UK
Sat 05:40:23 PM 49.4916 -1.6436 98° East 457 526 35,000 4,800 Climbing FlightAware ADS-B
Sat 05:40:26 PM 49.4908 -1.6340 97° East 457 526 35,000 -4,737 Level FlightAware ADS-B
Sat 05:40:42 PM 49.4862 -1.5821 97° East 498 573 33,500  Descending FlightAware UK
Sat 05:40:55 PM 49.4827 -1.5400 97° East 456 525 35,000 3,103 Climbing FlightAware ADS-B
Sat 05:41:11 PM 49.4784 -1.4897 97° East 457 526 35,000  Level FlightAware ADS-B
Sat 05:41:25 PM 49.4744 -1.4428 97° East 457 526 35,000 -2,903 Level FlightAware ADS-B
Sat 05:41:42 PM 49.4695 -1.3896 97° East 498 573 33,500  Descending FlightAware UK
Sat 05:41:49 PM 49.4678 -1.3675 97° East 456 525 35,000 6,000 Climbing FlightAware ADS-B
Sat 05:41:57 PM 49.4656 -1.3425 98° East 456 525 35,000 -3,913 Level FlightAware ADS-B
Sat 05:42:12 PM 49.4610 -1.2928 98° East 498 573 33,500  Descending FlightAware UK
Sat 05:42:19 PM 49.4593 -1.2695 98° East 456 525 35,000 3,750 Climbing FlightAware ADS-B
Sat 05:42:36 PM 49.4545 -1.2151 98° East 455 524 35,000  Level FlightAware ADS-B
Sat 05:42:52 PM 49.4500 -1.1640 98° East 455 524 35,000 -2,500 Level FlightAware ADS-B
Sat 05:43:12 PM 49.4440 -1.1017 98° East 500 575 33,500  Descending FlightAware UK
Sat 05:43:25 PM 49.4404 -1.0593 98° East 455 524 35,000 6,429 Climbing FlightAware ADS-B
Sat 05:43:26 PM 49.4403 -1.0580 97° East 455 524 35,000 -5,294 Level FlightAware ADS-B
Sat 05:43:42 PM 49.4354 -1.0046 97° East 500 575 33,500  Descending FlightAware UK
Sat 05:43:56 PM 49.4315 -0.9607 97° East 453 521 35,000 4,091 Climbing FlightAware ADS-B
Sat 05:44:04 PM 49.4291 -0.9346 98° East 454 522 35,000 -3,429 Level FlightAware ADS-B
Sat 05:44:24 PM 49.4231 -0.8711 98° East 500 575 33,400 -261 Descending FlightAware UK
Sat 05:44:27 PM 49.4226 -0.8633 98° East 451 519 34,900 4,500 Climbing FlightAware ADS-B
Sat 05:44:40 PM 49.4187 -0.8208 98° East 452 520 34,600 -4,545 Descending FlightAware ADS-B
Sat 05:45:00 PM 49.4127 -0.7574 98° East 492 566 32,400 -1,615 Descending FlightAware UK
Sat 05:45:06 PM 49.4113 -0.7402 98° East 443 510 33,900 -1,500 Climbing FlightAware ADS-B
Sat 05:45:24 PM 49.4058 -0.6844 98° East 478 550 31,800 -1,875 Descending FlightAware UK
Sat 05:45:38 PM 49.4023 -0.6432 98° East 433 498 32,900 -2,129 Climbing FlightAware ADS-B
Sat 05:45:55 PM 49.3973 -0.5927 98° East 476 548 30,700 -2,400 Descending FlightAware UK
Sat 05:46:08 PM 49.3938 -0.5520 98° East 427 491 31,700 -2,069 Climbing FlightAware ADS-B
Sat 05:46:24 PM 49.3894 -0.5043 98° East 470 541 29,700 -1,161 Descending FlightAware UK
Sat 05:46:39 PM 49.3873 -0.4595 98° East 422 486 31,100 -774 Climbing FlightAware ADS-B
Sat 05:46:55 PM 49.3845 -0.4136 98° East 460 529 29,300 -774 Descending FlightAware UK
Sat 05:47:10 PM 49.3831 -0.3699 98° East 415 478 30,700 -1,000 Climbing FlightAware ADS-B
Sat 05:47:25 PM 49.3811 -0.3263 98° East 454 522 28,800 -1,200 Descending FlightAware UK
Sat 05:47:40 PM 49.3799 -0.2809 98° East 410 472 30,100 -1,167 Climbing FlightAware ADS-B
Sat 05:48:01 PM 49.3777 -0.2219 98° East 444 511 28,100 -1,167 Descending FlightAware UK
Sat 05:48:16 PM 49.3768 -0.1782 98° East 409 471 29,400 -1,200 Climbing FlightAware ADS-B
Sat 05:48:31 PM 49.3752 -0.1341 98° East 442 509 27,500 -1,200 Descending FlightAware UK
Sat 05:48:46 PM 49.3741 -0.0920 98° East 405 466 28,800 -1,029 Climbing FlightAware ADS-B
Sat 05:49:06 PM 49.3721 -0.0324 98° East 438 504 26,900 -968 Descending FlightAware UK
Sat 05:49:17 PM 49.3711 -0.0025 98° East 403 464 28,300 -774 Climbing FlightAware ADS-B
Sat 05:49:37 PM 49.3690 0.0534 98° East 436 502 26,500 -968 Descending FlightAware UK
Sat 05:49:48 PM 49.3680 0.0833 98° East 398 458 27,800 -1,000 Climbing FlightAware ADS-B
Sat 05:50:07 PM 49.3657 0.1370 98° East 436 502 26,000 -774 Descending FlightAware UK
Sat 05:50:19 PM 49.3646 0.1694 98° East 392 451 27,400 -800 Climbing FlightAware ADS-B
Sat 05:50:37 PM 49.3624 0.2201 98° East 432 497 25,600 -800 Descending FlightAware UK
Sat 05:50:49 PM 49.3613 0.2537 98° East 387 445 27,000 -828 Climbing FlightAware ADS-B
Sat 05:51:06 PM 49.3591 0.3012 98° East 424 488 25,200 -968 Descending FlightAware UK
Sat 05:51:20 PM 49.3579 0.3361 98° East 384 442 26,500 -968 Climbing FlightAware ADS-B
Sat 05:51:37 PM 49.3556 0.3841 98° East 422 486 24,700 -3,600 Descending FlightAware UK
Sat 05:51:55 PM 49.3536 0.4326 94° East 422 486 24,400 2,880 Descending FlightAware UK
Sat 05:52:02 PM 49.3540 0.4410 94° East 378 435 25,900 -1,750 Climbing FlightAware ADS-B
Sat 05:52:19 PM 49.3511 0.4961 94° East 416 479 23,700 -4,971 Descending FlightAware UK
Sat 05:52:37 PM 49.3492 0.5434 94° East 414 476 23,000 1,286 Descending FlightAware UK
Sat 05:52:47 PM 49.3490 0.5620 94° East 370 426 24,300 -2,200 Climbing FlightAware ADS-B
Sat 05:53:07 PM 49.3458 0.6208 94° East 406 467 21,900 -4,737 Descending FlightAware UK
Sat 05:53:25 PM 49.3437 0.6681 94° East 404 465 21,300 2,700 Descending FlightAware UK
Sat 05:53:27 PM 49.3440 0.6700 94° East 365 420 22,800 -2,000 Climbing FlightAware ADS-B
Sat 05:53:43 PM 49.3417 0.7145 94° East 404 465 20,700 -2,143 Descending FlightAware UK
Sat 05:53:55 PM 49.3408 0.7456 94° East 362 417 21,800 -2,200 Climbing FlightAware ADS-B
Sat 05:54:13 PM 49.3384 0.7912 94° East 404 465 19,600 -1,935 Descending FlightAware UK
Sat 05:54:26 PM 49.3375 0.8227 94° East 356 410 20,800 -2,000 Climbing FlightAware ADS-B
Sat 05:54:43 PM 49.3353 0.8670 94° East 398 458 18,600 -2,129 Descending FlightAware UK
Sat 05:54:57 PM 49.3339 0.8990 94° East 351 404 19,700 -1,800 Climbing FlightAware ADS-B
Sat 05:55:13 PM 49.3316 0.9409 94° East 392 451 17,700 -1,800 Descending FlightAware UK
Sat 05:55:27 PM 49.3304 0.9735 94° East 346 398 18,800 -2,000 Climbing FlightAware ADS-B
Sat 05:55:43 PM 49.3282 1.0139 94° East 386 444 16,700 -2,000 Descending FlightAware UK
Sat 05:55:57 PM 49.3271 1.0470 94° East 341 392 17,800 -2,000 Climbing FlightAware ADS-B
Sat 05:56:13 PM 49.3251 1.0856 94° East 376 433 15,700 -1,778 Descending FlightAware UK
Sat 05:56:24 PM 49.3242 1.1102 94° East 336 387 17,000 -1,800 Climbing FlightAware ADS-B
Sat 05:56:43 PM 49.3218 1.1569 94° East 372 428 14,800 -2,000 Descending FlightAware UK
Sat 05:56:54 PM 49.3208 1.1812 94° East 331 381 16,000 -1,800 Climbing FlightAware ADS-B
Sat 05:57:13 PM 49.3183 1.2275 94° East 366 421 13,900 -1,714 Descending FlightAware UK
Sat 05:57:22 PM 49.3177 1.2457 94° East 328 377 15,200 -2,000 Climbing FlightAware ADS-B
Sat 05:57:37 PM 49.3157 1.2826 94° East 362 417 13,100 -1,800 Descending FlightAware UK
Sat 05:57:52 PM 49.3143 1.3149 94° East 328 377 14,300 -1,800 Climbing FlightAware ADS-B
Sat 05:58:07 PM 49.3122 1.3514 94° East 354 407 12,200 -2,000 Descending FlightAware UK
Sat 05:58:22 PM 49.3109 1.3851 94° East 329 379 13,300 -1,800 Climbing FlightAware ADS-B
Sat 05:58:37 PM 49.3086 1.4208 94° East 350 403 11,300 -1,818 Descending FlightAware UK
Sat 05:58:55 PM 49.3072 1.4623 94° East 333 383 12,300 -1,833 Climbing FlightAware ADS-B
Sat 05:59:13 PM 49.3045 1.5057 94° East 354 407 10,200 -4,500 Descending FlightAware UK
Sat 05:59:31 PM 49.3023 1.5482 95° East 358 412 9,600 2,000 Descending FlightAware UK
Sat 05:59:37 PM 49.3020 1.5610 95° East 335 386 11,000 -1,440 Climbing FlightAware ADS-B
Sat 05:59:56 PM 49.2992 1.6062 95° East 358 412 9,000 -1,000 Descending FlightAware UK
Sat 06:00:07 PM 49.2977 1.6311 95° East 322 371 10,500 5,250 Climbing FlightAware ADS-B
Sat 06:00:12 PM 49.2955 1.6427 106° East 316 364 10,400 -500 Descending FlightAware ADS-B
Sat 06:00:19 PM 49.2916 1.6561 114° Southeast 308 354 10,400 -500 Level FlightAware ADS-B
Sat 06:00:24 PM 49.2879 1.6650 123° Southeast 301 346 10,300 -667 Descending FlightAware ADS-B
Sat 06:00:28 PM 49.2844 1.6719 128° Southeast 297 342 10,300 -5,100 Level FlightAware ADS-B
Sat 06:00:44 PM 49.2684 1.6960 128° Southeast 330 380 8,600 -207 Descending FlightAware UK
Sat 06:00:57 PM 49.2589 1.7145 128° Southeast 278 320 10,200  Climbing FlightAware ADS-B
Sat 06:01:13 PM 49.2436 1.7393 128° Southeast 300 345 8,600 -231 Descending FlightAware UK
Sat 06:01:23 PM 49.2373 1.7508 128° Southeast 251 289 10,100 -720 Climbing FlightAware ADS-B
Sat 06:01:38 PM 49.2250 1.7708 128° Southeast 280 322 8,300 -750 Descending FlightAware UK
Sat 06:01:39 PM 49.2251 1.7710 128° Southeast 246 283 9,900 4,875 Climbing FlightAware ADS-B
Sat 06:01:54 PM 49.2132 1.7906 133° Southeast 243 280 9,600 -1,161 Descending FlightAware ADS-B
Sat 06:02:10 PM 49.2014 1.8101 133° Southeast 243 280 9,300 -968 Descending FlightAware ADS-B
Sat 06:02:25 PM 49.1898 1.8295 132° Southeast 241 277 9,100 -1,000 Descending FlightAware ADS-B
Sat 06:02:40 PM 49.1786 1.8483 132° Southeast 240 276 8,800 -1,200 Descending FlightAware ADS-B
Sat 06:02:55 PM 49.1674 1.8671 132° Southeast 239 275 8,500 -1,355 Descending FlightAware ADS-B
Sat 06:03:11 PM 49.1553 1.8870 133° Southeast 237 273 8,100 -1,355 Descending FlightAware ADS-B
Sat 06:03:26 PM 49.1442 1.9056 132° Southeast 235 270 7,800 -1,304 Descending FlightAware ADS-B
Sat 06:03:34 PM 49.1385 1.9149 133° Southeast 235 270 7,600 -1,304 Descending FlightAware ADS-B
Sat 06:03:49 PM 49.1274 1.9330 133° Southeast 234 269 7,300 -1,355 Descending FlightAware ADS-B
Sat 06:04:05 PM 49.1158 1.9516 134° Southeast 234 269 6,900 -1,355 Descending FlightAware ADS-B
Sat 06:04:20 PM 49.1045 1.9697 134° Southeast 235 270 6,600 -1,400 Descending FlightAware ADS-B
Sat 06:04:35 PM 49.0930 1.9882 133° Southeast 236 272 6,200 -1,355 Descending FlightAware ADS-B
Sat 06:04:51 PM 49.0815 2.0070 133° Southeast 236 272 5,900 -1,161 Descending FlightAware ADS-B
Sat 06:05:06 PM 49.0702 2.0257 133° Southeast 236 272 5,600 -1,200 Descending FlightAware ADS-B
Sat 06:05:21 PM 49.0587 2.0445 133° Southeast 236 272 5,300 -800 Descending FlightAware ADS-B
Sat 06:05:36 PM 49.0476 2.0632 132° Southeast 234 269 5,200 -194 Descending FlightAware ADS-B
Sat 06:05:52 PM 49.0370 2.0811 132° Southeast 222 255 5,200  Level FlightAware ADS-B
Sat 06:06:07 PM 49.0265 2.0988 132° Southeast 219 252 5,200 -400 Level FlightAware ADS-B
Sat 06:06:22 PM 49.0163 2.1160 132° Southeast 217 250 5,000 -1,000 Descending FlightAware ADS-B
Sat 06:06:37 PM 49.0063 2.1329 132° Southeast 215 247 4,700 -1,400 Descending FlightAware ADS-B
Sat 06:06:52 PM 48.9965 2.1499 131° Southeast 216 249 4,300 -938 Descending FlightAware ADS-B
Sat 06:07:09 PM 48.9854 2.1692 131° Southeast 220 253 4,200 -231 Descending FlightAware ADS-B
Sat 06:07:18 PM 48.9793 2.1809 128° Southeast 221 254 4,200  Level FlightAware ADS-B
Sat 06:07:22 PM 48.9774 2.1864 118° Southeast 223 257 4,200  Level FlightAware ADS-B
Sat 06:07:28 PM 48.9755 2.1957 107° East 227 261 4,200  Level FlightAware ADS-B
Sat 06:07:35 PM 48.9745 2.2062 98° East 227 261 4,200  Level FlightAware ADS-B
Sat 06:07:42 PM 48.9742 2.2171 92° East 229 264 4,200  Level FlightAware ADS-B
Sat 06:07:47 PM 48.9745 2.2260 87° East 230 265 4,200  Level FlightAware ADS-B
Sat 06:07:54 PM 48.9751 2.2366 85° East 232 267 4,200  Level FlightAware ADS-B
Sat 06:07:58 PM 48.9756 2.2435 84° East 230 265 4,200  Level FlightAware ADS-B
Sat 06:08:07 PM 48.9763 2.2571 86° East 225 259 4,200  Level FlightAware ADS-B
Sat 06:08:23 PM 48.9773 2.2810 86° East 210 242 4,200 -387 Level FlightAware ADS-B
Sat 06:08:38 PM 48.9787 2.3036 85° East 203 234 4,000 -968 Descending FlightAware ADS-B
Sat 06:08:54 PM 48.9799 2.3259 85° East 197 227 3,700 -1,135 Descending FlightAware ADS-B
Sat 06:09:15 PM 48.9814 2.3542 85° East 189 217 3,300 -1,024 Descending FlightAware ADS-B
Sat 06:09:35 PM 48.9828 2.3795 85° East 187 215 3,000 -955 Descending FlightAware ADS-B
Sat 06:09:59 PM 48.9846 2.4107 85° East 181 208 2,600 -947 Descending FlightAware ADS-B
Sat 06:10:32 PM 48.9870 2.4470 84° East 166 191 2,100 -875 Descending FlightAware ADS-B
Sat 06:10:47 PM 48.9870 2.4630 90° East 160 184 1,900 -750 Descending FlightAware ADS-B
Sat 06:11:12 PM 48.9890 2.4930 84° East 150 173 1,600 -857 Descending FlightAware ADS-B
Sat 06:11:22 PM 48.9896 2.5050 86° East 149 171 1,400 -923 Descending FlightAware ADS-B
Sat 06:11:38 PM 48.9905 2.5207 85° East 143 165 1,200 -750 Descending FlightAware ADS-B
Sat 06:11:54 PM 48.9914 2.5369 85° East 144 166 1,000 -882 Descending FlightAware ADS-B
Sat 06:12:12 PM 48.9923 2.5550 86° East 147 169 700 -882 Descending FlightAware ADS-B
Sat 06:12:28 PM 48.9932 2.5712 85° East 147 169 500 -750 Descending FlightAware ADS-B

Login

Don't have an account? Register now (free) for customized features, flight alerts, and more!